Observation data for Amarillo 7 South Southeast on 03/09/2018      Previous  Date       Current Mesonet Observations  Soil Data  Daily Summary Page  Observations in Plain Language
KAM1 090600Z 17009KT 06/M09 A2985 RMK A01 T00611085  RH  034%=      5-min Rain = 0
KAM1 090601Z 17009KT 06/M08 A2985 RMK A01 T00631084  RH  034%=      5-min Rain = 0
KAM1 090602Z 16009KT 07/M08 A2985 RMK A01 T00661083  RH  034%=      5-min Rain = 0
KAM1 090603Z 16009KT 07/M08 A2985 RMK A01 T00671083  RH  033%=      5-min Rain = 0
KAM1 090604Z 16009KT 07/M08 A2985 RMK A01 T00671084  RH  033%=      5-min Rain = 0
KAM1 090605Z 17009KT 07/M09 A2985 RMK A01 T00671085  RH  033%=      5-min Rain = 0
KAM1 090606Z 17009KT 07/M09 A2985 RMK A01 T00671085  RH  033%=      5-min Rain = 0
KAM1 090607Z 16010KT 07/M09 A2985 RMK A01 T00671085  RH  033%=      5-min Rain = 0
KAM1 090608Z 17009KT 07/M09 A2985 RMK A01 T00671085  RH  033%=      5-min Rain = 0
KAM1 090609Z 17009KT 07/M09 A2985 RMK A01 T00671085  RH  033%=      5-min Rain = 0
KAM1 090610Z 17009KT 07/M09 A2985 RMK A01 T00671085  RH  033%=      5-min Rain = 0
KAM1 090611Z 17009KT 07/M08 A2985 RMK A01 T00671084  RH  033%=      5-min Rain = 0
KAM1 090612Z 17009KT 07/M09 A2985 RMK A01 T00661085  RH  033%=      5-min Rain = 0
KAM1 090613Z 17008KT 07/M09 A2985 RMK A01 T00661085  RH  033%=      5-min Rain = 0
KAM1 090614Z 17009KT 07/M09 A2985 RMK A01 T00661085  RH  033%=      5-min Rain = 0
KAM1 090615Z 17008KT 07/M09 A2985 RMK A01 T00651086  RH  033%=      5-min Rain = 0
KAM1 090616Z 17009KT 06/M09 A2985 RMK A01 T00641086  RH  033%=      5-min Rain = 0
KAM1 090617Z 17009KT 06/M09 A2985 RMK A01 T00641085  RH  033%=      5-min Rain = 0
KAM1 090618Z 17009KT 06/M09 A2985 RMK A01 T00641085  RH  033%=      5-min Rain = 0
KAM1 090619Z 17009KT 07/M09 A2985 RMK A01 T00651085  RH  033%=      5-min Rain = 0
KAM1 090620Z 17010KT 07/M08 A2985 RMK A01 T00651084  RH  033%=      5-min Rain = 0
KAM1 090621Z 17009KT 07/M08 A2985 RMK A01 T00661083  RH  033%=      5-min Rain = 0
KAM1 090622Z 17009KT 07/M08 A2985 RMK A01 T00671083  RH  033%=      5-min Rain = 0
KAM1 090623Z 17009KT 07/M08 A2984 RMK A01 T00681083  RH  033%=      5-min Rain = 0
KAM1 090624Z 17009KT 07/M08 A2984 RMK A01 T00671083  RH  033%=      5-min Rain = 0
KAM1 090625Z 17009KT 07/M08 A2984 RMK A01 T00671084  RH  033%=      5-min Rain = 0
KAM1 090626Z 17009KT 07/M08 A2984 RMK A01 T00661084  RH  033%=      5-min Rain = 0
KAM1 090627Z 17008KT 07/M09 A2984 RMK A01 T00651085  RH  033%=      5-min Rain = 0
KAM1 090628Z 17009KT 06/M09 A2984 RMK A01 T00641085  RH  034%=      5-min Rain = 0
KAM1 090629Z 17009KT 06/M09 A2984 RMK A01 T00641085  RH  034%=      5-min Rain = 0
KAM1 090630Z 17009KT 06/M09 A2984 RMK A01 T00631085  RH  034%=      5-min Rain = 0
KAM1 090631Z 17009KT 06/M09 A2984 RMK A01 T00631085  RH  034%=      5-min Rain = 0
KAM1 090632Z 17009KT 06/M08 A2984 RMK A01 T00641084  RH  034%=      5-min Rain = 0
KAM1 090633Z 17010KT 07/M08 A2984 RMK A01 T00651084  RH  034%=      5-min Rain = 0
KAM1 090634Z 17010KT 07/M08 A2984 RMK A01 T00661083  RH  034%=      5-min Rain = 0
KAM1 090635Z 17009KT 07/M08 A2984 RMK A01 T00671083  RH  033%=      5-min Rain = 0
KAM1 090636Z 18010KT 07/M08 A2984 RMK A01 T00681082  RH  033%=      5-min Rain = 0
KAM1 090637Z 17010KT 07/M08 A2984 RMK A01 T00701081  RH  033%=      5-min Rain = 0
KAM1 090638Z 18010KT 07/M08 A2984 RMK A01 T00711081  RH  033%=      5-min Rain = 0
KAM1 090639Z 17010KT 07/M08 A2984 RMK A01 T00721081  RH  033%=      5-min Rain = 0
KAM1 090640Z 17010KT 07/M08 A2984 RMK A01 T00731081  RH  033%=      5-min Rain = 0
KAM1 090641Z 17009KT 07/M08 A2984 RMK A01 T00721081  RH  033%=      5-min Rain = 0
KAM1 090642Z 17010KT 07/M08 A2984 RMK A01 T00711082  RH  033%=      5-min Rain = 0
KAM1 090643Z 17010KT 07/M08 A2984 RMK A01 T00701082  RH  033%=      5-min Rain = 0
KAM1 090644Z 17010KT 07/M08 A2984 RMK A01 T00701082  RH  033%=      5-min Rain = 0
KAM1 090645Z 17010KT 07/M08 A2984 RMK A01 T00691081  RH  033%=      5-min Rain = 0
KAM1 090646Z 18009KT 07/M08 A2984 RMK A01 T00691081  RH  033%=      5-min Rain = 0
KAM1 090647Z 18009KT 07/M08 A2984 RMK A01 T00691081  RH  033%=      5-min Rain = 0
KAM1 090648Z 18010KT 07/M08 A2984 RMK A01 T00691080  RH  034%=      5-min Rain = 0
KAM1 090649Z 18010KT 07/M08 A2984 RMK A01 T00701079  RH  034%=      5-min Rain = 0
KAM1 090650Z 18010KT 07/M08 A2984 RMK A01 T00701079  RH  034%=      5-min Rain = 0
KAM1 090651Z 18010KT 07/M08 A2984 RMK A01 T00701079  RH  034%=      5-min Rain = 0
KAM1 090652Z 18010KT 07/M08 A2984 RMK A01 T00701079  RH  034%=      5-min Rain = 0
KAM1 090653Z 18011KT 07/M08 A2984 RMK A01 T00711078  RH  034%=      5-min Rain = 0
KAM1 090654Z 18010KT 07/M08 A2983 RMK A01 T00731076  RH  034%=      5-min Rain = 0
KAM1 090655Z 19010KT 07/M08 A2984 RMK A01 T00731076  RH  034%=      5-min Rain = 0
KAM1 090656Z 19010KT 07/M08 A2984 RMK A01 T00731076  RH  034%=      5-min Rain = 0
KAM1 090657Z 19010KT 07/M08 A2984 RMK A01 T00731077  RH  034%=      5-min Rain = 0
KAM1 090658Z 19010KT 07/M08 A2984 RMK A01 T00741076  RH  034%=      5-min Rain = 0
KAM1 090659Z 19011KT 07/M08 A2984 RMK A01 T00741076  RH  034%=      5-min Rain = 0
KAM1 090700Z 19010KT 08/M08 A2984 RMK A01 T00751075  RH  034%=      5-min Rain = 0
KAM1 090701Z 19010KT 08/M08 A2984 RMK A01 T00751075  RH  034%=      5-min Rain = 0
KAM1 090702Z 19010KT 08/M08 A2984 RMK A01 T00751075  RH  034%=      5-min Rain = 0
KAM1 090703Z 19010KT 08/M08 A2984 RMK A01 T00751075  RH  034%=      5-min Rain = 0
KAM1 090704Z 19008KT 08/M08 A2984 RMK A01 T00751075  RH  034%=      5-min Rain = 0
KAM1 090705Z 19009KT 07/M08 A2984 RMK A01 T00741076  RH  034%=      5-min Rain = 0
KAM1 090706Z 19010KT 07/M08 A2984 RMK A01 T00731075  RH  034%=      5-min Rain = 0
KAM1 090707Z 19009KT 07/M08 A2984 RMK A01 T00731075  RH  034%=      5-min Rain = 0
KAM1 090708Z 19009KT 07/M07 A2984 RMK A01 T00731074  RH  034%=      5-min Rain = 0
KAM1 090709Z 18008KT 07/M08 A2984 RMK A01 T00731075  RH  034%=      5-min Rain = 0
KAM1 090710Z 19009KT 07/M08 A2984 RMK A01 T00731075  RH  034%=      5-min Rain = 0
KAM1 090711Z 19008KT 07/M08 A2984 RMK A01 T00721075  RH  034%=      5-min Rain = 0
KAM1 090712Z 19009KT 07/M07 A2984 RMK A01 T00711074  RH  035%=      5-min Rain = 0
KAM1 090713Z 19010KT 07/M07 A2984 RMK A01 T00711074  RH  035%=      5-min Rain = 0
KAM1 090714Z 19008KT 07/M07 A2984 RMK A01 T00711074  RH  035%=      5-min Rain = 0
KAM1 090715Z 19009KT 07/M07 A2984 RMK A01 T00711074  RH  035%=      5-min Rain = 0
KAM1 090716Z 19009KT 07/M07 A2983 RMK A01 T00711074  RH  035%=      5-min Rain = 0
KAM1 090717Z 19010KT 07/M07 A2983 RMK A01 T00711073  RH  035%=      5-min Rain = 0
KAM1 090718Z 19009KT 07/M07 A2983 RMK A01 T00711073  RH  035%=      5-min Rain = 0
KAM1 090719Z 19011KT 07/M07 A2983 RMK A01 T00721073  RH  035%=      5-min Rain = 0
KAM1 090720Z 19010KT 07/M07 A2983 RMK A01 T00711073  RH  035%=      5-min Rain = 0
KAM1 090721Z 19010KT 07/M07 A2983 RMK A01 T00721073  RH  035%=      5-min Rain = 0
KAM1 090722Z 20010KT 07/M07 A2983 RMK A01 T00711072  RH  035%=      5-min Rain = 0
KAM1 090723Z 20009KT 07/M07 A2983 RMK A01 T00711072  RH  035%=      5-min Rain = 0
KAM1 090724Z 20009KT 07/M07 A2983 RMK A01 T00711072  RH  035%=      5-min Rain = 0
KAM1 090725Z 20009KT 07/M07 A2983 RMK A01 T00711072  RH  035%=      5-min Rain = 0
KAM1 090726Z 20010KT 07/M07 A2983 RMK A01 T00711071  RH  036%=      5-min Rain = 0
KAM1 090727Z 20009KT 07/M07 A2983 RMK A01 T00711071  RH  036%=      5-min Rain = 0
KAM1 090728Z 20010KT 07/M07 A2983 RMK A01 T00711071  RH  036%=      5-min Rain = 0
KAM1 090729Z 20008KT 07/M07 A2983 RMK A01 T00721070  RH  036%=      5-min Rain = 0
KAM1 090730Z 20009KT 07/M07 A2983 RMK A01 T00721070  RH  036%=      5-min Rain = 0
KAM1 090731Z 20009KT 07/M07 A2983 RMK A01 T00711070  RH  036%=      5-min Rain = 0
KAM1 090732Z 20010KT 07/M07 A2983 RMK A01 T00711069  RH  036%=      5-min Rain = 0
KAM1 090733Z 20011KT 07/M07 A2983 RMK A01 T00721068  RH  036%=      5-min Rain = 0
KAM1 090734Z 21009KT 07/M07 A2983 RMK A01 T00731068  RH  036%=      5-min Rain = 0
KAM1 090735Z 21010KT 07/M07 A2983 RMK A01 T00731068  RH  036%=      5-min Rain = 0
KAM1 090736Z 21009KT 07/M07 A2983 RMK A01 T00731067  RH  036%=      5-min Rain = 0
KAM1 090737Z 21009KT 07/M07 A2983 RMK A01 T00731067  RH  036%=      5-min Rain = 0
KAM1 090738Z 21009KT 07/M07 A2983 RMK A01 T00721067  RH  036%=      5-min Rain = 0
KAM1 090739Z 21010KT 07/M07 A2983 RMK A01 T00711067  RH  037%=      5-min Rain = 0
KAM1 090740Z 21009KT 07/M07 A2983 RMK A01 T00721066  RH  037%=      5-min Rain = 0
KAM1 090741Z 21008KT 07/M07 A2983 RMK A01 T00721066  RH  037%=      5-min Rain = 0
KAM1 090742Z 21010KT 07/M07 A2983 RMK A01 T00711066  RH  037%=      5-min Rain = 0
KAM1 090743Z 21009KT 07/M07 A2983 RMK A01 T00711066  RH  037%=      5-min Rain = 0
KAM1 090744Z 21010KT 07/M07 A2983 RMK A01 T00701065  RH  037%=      5-min Rain = 0
KAM1 090745Z 21010KT 07/M07 A2983 RMK A01 T00701065  RH  038%=      5-min Rain = 0
KAM1 090746Z 21009KT 07/M07 A2983 RMK A01 T00701065  RH  038%=      5-min Rain = 0
KAM1 090747Z 21008KT 07/M07 A2983 RMK A01 T00701065  RH  038%=      5-min Rain = 0
KAM1 090748Z 21009KT 07/M07 A2983 RMK A01 T00691065  RH  038%=      5-min Rain = 0
KAM1 090749Z 21010KT 07/M07 A2983 RMK A01 T00681065  RH  038%=      5-min Rain = 0
KAM1 090750Z 21010KT 07/M06 A2983 RMK A01 T00681064  RH  038%=      5-min Rain = 0
KAM1 090751Z 21010KT 07/M06 A2983 RMK A01 T00671064  RH  039%=      5-min Rain = 0
KAM1 090752Z 21009KT 07/M06 A2983 RMK A01 T00681063  RH  039%=      5-min Rain = 0
KAM1 090753Z 21009KT 07/M06 A2983 RMK A01 T00681063  RH  039%=      5-min Rain = 0
KAM1 090754Z 21010KT 07/M06 A2983 RMK A01 T00671063  RH  039%=      5-min Rain = 0
KAM1 090755Z 21009KT 07/M06 A2983 RMK A01 T00671063  RH  039%=      5-min Rain = 0
KAM1 090756Z 21009KT 07/M06 A2983 RMK A01 T00671063  RH  039%=      5-min Rain = 0
KAM1 090757Z 21009KT 07/M06 A2983 RMK A01 T00661062  RH  039%=      5-min Rain = 0
KAM1 090758Z 21008KT 07/M06 A2983 RMK A01 T00661062  RH  039%=      5-min Rain = 0
KAM1 090759Z 22009KT 07/M06 A2983 RMK A01 T00661062  RH  040%=      5-min Rain = 0
KAM1 090800Z 22008KT 07/M06 A2984 RMK A01 T00651062  RH  040%=      5-min Rain = 0
KAM1 090801Z 22008KT 06/M06 A2984 RMK A01 T00641063  RH  040%=      5-min Rain = 0
KAM1 090802Z 22010KT 06/M06 A2983 RMK A01 T00631063  RH  040%=      5-min Rain = 0
KAM1 090803Z 21010KT 06/M06 A2983 RMK A01 T00631062  RH  040%=      5-min Rain = 0
KAM1 090804Z 21010KT 06/M06 A2983 RMK A01 T00641062  RH  040%=      5-min Rain = 0
KAM1 090805Z 21010KT 06/M06 A2983 RMK A01 T00641062  RH  040%=      5-min Rain = 0
KAM1 090806Z 21009KT 06/M06 A2983 RMK A01 T00641063  RH  040%=      5-min Rain = 0
KAM1 090807Z 21009KT 06/M06 A2983 RMK A01 T00641063  RH  040%=      5-min Rain = 0
KAM1 090808Z 21010KT 06/M06 A2983 RMK A01 T00641062  RH  040%=      5-min Rain = 0
KAM1 090809Z 21009KT 06/M06 A2983 RMK A01 T00641062  RH  040%=      5-min Rain = 0
KAM1 090810Z 21010KT 07/M06 A2983 RMK A01 T00651062  RH  040%=      5-min Rain = 0
KAM1 090811Z 21009KT 07/M06 A2983 RMK A01 T00651062  RH  040%=      5-min Rain = 0
KAM1 090812Z 21009KT 07/M06 A2983 RMK A01 T00661061  RH  040%=      5-min Rain = 0
KAM1 090813Z 21010KT 07/M06 A2983 RMK A01 T00661061  RH  040%=      5-min Rain = 0
KAM1 090814Z 21009KT 07/M06 A2983 RMK A01 T00661062  RH  040%=      5-min Rain = 0
KAM1 090815Z 22008KT 07/M06 A2983 RMK A01 T00651062  RH  040%=      5-min Rain = 0
KAM1 090816Z 21009KT 07/M06 A2983 RMK A01 T00651062  RH  040%=      5-min Rain = 0
KAM1 090817Z 21009KT 07/M06 A2983 RMK A01 T00651062  RH  040%=      5-min Rain = 0
KAM1 090818Z 21009KT 06/M06 A2982 RMK A01 T00641062  RH  040%=      5-min Rain = 0
KAM1 090819Z 20009KT 06/M06 A2982 RMK A01 T00631063  RH  040%=      5-min Rain = 0
KAM1 090820Z 21009KT 06/M06 A2982 RMK A01 T00621062  RH  040%=      5-min Rain = 0
KAM1 090821Z 20009KT 06/M06 A2982 RMK A01 T00621062  RH  040%=      5-min Rain = 0
KAM1 090822Z 21008KT 06/M06 A2982 RMK A01 T00621062  RH  041%=      5-min Rain = 0
KAM1 090823Z 21008KT 06/M06 A2982 RMK A01 T00621062  RH  041%=      5-min Rain = 0
KAM1 090824Z 21008KT 06/M06 A2982 RMK A01 T00611063  RH  041%=      5-min Rain = 0
KAM1 090825Z 21008KT 06/M06 A2982 RMK A01 T00601063  RH  041%=      5-min Rain = 0
KAM1 090826Z 21008KT 06/M06 A2982 RMK A01 T00601063  RH  041%=      5-min Rain = 0
KAM1 090827Z 20009KT 06/M06 A2982 RMK A01 T00591064  RH  041%=      5-min Rain = 0
KAM1 090828Z 20009KT 06/M06 A2982 RMK A01 T00581064  RH  041%=      5-min Rain = 0
KAM1 090829Z 20009KT 06/M06 A2982 RMK A01 T00571064  RH  041%=      5-min Rain = 0
KAM1 090830Z 20009KT 06/M06 A2982 RMK A01 T00571064  RH  042%=      5-min Rain = 0
KAM1 090831Z 20009KT 06/M06 A2982 RMK A01 T00561064  RH  042%=      5-min Rain = 0
KAM1 090832Z 20009KT 06/M06 A2982 RMK A01 T00561064  RH  042%=      5-min Rain = 0
KAM1 090833Z 20009KT 06/M06 A2982 RMK A01 T00551064  RH  042%=      5-min Rain = 0
KAM1 090834Z 20009KT 06/M06 A2982 RMK A01 T00551064  RH  042%=      5-min Rain = 0
KAM1 090835Z 20008KT 05/M07 A2982 RMK A01 T00541065  RH  042%=      5-min Rain = 0
KAM1 090836Z 21008KT 05/M07 A2982 RMK A01 T00521065  RH  042%=      5-min Rain = 0
KAM1 090837Z 21007KT 05/M07 A2982 RMK A01 T00511065  RH  043%=      5-min Rain = 0
KAM1 090838Z 21007KT 05/M07 A2982 RMK A01 T00511065  RH  043%=      5-min Rain = 0
KAM1 090839Z 21007KT 05/M07 A2982 RMK A01 T00501066  RH  043%=      5-min Rain = 0
KAM1 090840Z 21008KT 05/M07 A2982 RMK A01 T00501066  RH  043%=      5-min Rain = 0
KAM1 090841Z 21008KT 05/M07 A2982 RMK A01 T00491066  RH  043%=      5-min Rain = 0
KAM1 090842Z 21008KT 05/M07 A2982 RMK A01 T00481066  RH  043%=      5-min Rain = 0
KAM1 090843Z 21008KT 05/M07 A2982 RMK A01 T00471066  RH  044%=      5-min Rain = 0
KAM1 090844Z 21008KT 05/M07 A2982 RMK A01 T00471066  RH  044%=      5-min Rain = 0
KAM1 090845Z 21008KT 05/M07 A2982 RMK A01 T00451067  RH  044%=      5-min Rain = 0
KAM1 090846Z 21008KT 04/M07 A2981 RMK A01 T00441067  RH  044%=      5-min Rain = 0
KAM1 090847Z 21008KT 04/M07 A2981 RMK A01 T00431067  RH  044%=      5-min Rain = 0
KAM1 090848Z 21008KT 04/M07 A2981 RMK A01 T00431067  RH  045%=      5-min Rain = 0
KAM1 090849Z 21008KT 04/M07 A2981 RMK A01 T00421067  RH  045%=      5-min Rain = 0
KAM1 090850Z 21009KT 04/M07 A2981 RMK A01 T00411068  RH  045%=      5-min Rain = 0
KAM1 090851Z 21009KT 04/M07 A2981 RMK A01 T00411067  RH  045%=      5-min Rain = 0
KAM1 090852Z 21008KT 04/M07 A2981 RMK A01 T00411067  RH  045%=      5-min Rain = 0
KAM1 090853Z 22008KT 04/M07 A2982 RMK A01 T00411067  RH  045%=      5-min Rain = 0
KAM1 090854Z 22008KT 04/M07 A2982 RMK A01 T00411068  RH  045%=      5-min Rain = 0
KAM1 090855Z 22008KT 04/M07 A2981 RMK A01 T00401068  RH  045%=      5-min Rain = 0
KAM1 090856Z 22008KT 04/M07 A2981 RMK A01 T00401068  RH  045%=      5-min Rain = 0
KAM1 090857Z 22008KT 04/M07 A2981 RMK A01 T00401068  RH  045%=      5-min Rain = 0
KAM1 090858Z 22008KT 04/M07 A2981 RMK A01 T00401068  RH  045%=      5-min Rain = 0
KAM1 090859Z 22009KT 04/M07 A2981 RMK A01 T00401069  RH  045%=      5-min Rain = 0
KAM1 090900Z 22009KT 04/M07 A2981 RMK A01 T00401069  RH  045%=      5-min Rain = 0
KAM1 090901Z 22009KT 04/M07 A2981 RMK A01 T00401069  RH  045%=      5-min Rain = 0
KAM1 090902Z 21009KT 04/M07 A2981 RMK A01 T00411069  RH  045%=      5-min Rain = 0
KAM1 090903Z 21009KT 04/M07 A2981 RMK A01 T00411069  RH  044%=      5-min Rain = 0
KAM1 090904Z 21009KT 04/M07 A2981 RMK A01 T00421070  RH  044%=      5-min Rain = 0
KAM1 090905Z 22009KT 04/M07 A2981 RMK A01 T00421070  RH  044%=      5-min Rain = 0
KAM1 090906Z 22009KT 04/M07 A2981 RMK A01 T00421070  RH  044%=      5-min Rain = 0
KAM1 090907Z 21009KT 04/M07 A2981 RMK A01 T00421071  RH  044%=      5-min Rain = 0
KAM1 090908Z 21010KT 04/M07 A2981 RMK A01 T00421071  RH  044%=      5-min Rain = 0
KAM1 090909Z 21010KT 04/M07 A2981 RMK A01 T00431071  RH  043%=      5-min Rain = 0
KAM1 090910Z 21009KT 04/M07 A2981 RMK A01 T00431071  RH  043%=      5-min Rain = 0
KAM1 090911Z 21010KT 04/M07 A2981 RMK A01 T00441071  RH  043%=      5-min Rain = 0
KAM1 090912Z 21010KT 04/M07 A2981 RMK A01 T00441071  RH  043%=      5-min Rain = 0
KAM1 090913Z 21010KT 05/M07 A2981 RMK A01 T00451072  RH  043%=      5-min Rain = 0
KAM1 090914Z 22009KT 05/M07 A2981 RMK A01 T00451072  RH  042%=      5-min Rain = 0
KAM1 090915Z 21010KT 05/M07 A2981 RMK A01 T00451073  RH  042%=      5-min Rain = 0
KAM1 090916Z 22009KT 05/M07 A2981 RMK A01 T00461073  RH  042%=      5-min Rain = 0
KAM1 090917Z 22009KT 05/M07 A2981 RMK A01 T00461073  RH  042%=      5-min Rain = 0
KAM1 090918Z 22009KT 05/M07 A2981 RMK A01 T00461074  RH  042%=      5-min Rain = 0
KAM1 090919Z 22009KT 05/M07 A2981 RMK A01 T00461074  RH  042%=      5-min Rain = 0
KAM1 090920Z 22008KT 05/M08 A2981 RMK A01 T00451075  RH  042%=      5-min Rain = 0
KAM1 090921Z 23008KT 04/M08 A2981 RMK A01 T00441075  RH  042%=      5-min Rain = 0
KAM1 090922Z 23008KT 04/M08 A2981 RMK A01 T00441076  RH  041%=      5-min Rain = 0
KAM1 090923Z 23008KT 04/M08 A2981 RMK A01 T00441076  RH  041%=      5-min Rain = 0
KAM1 090924Z 23007KT 04/M08 A2981 RMK A01 T00441077  RH  041%=      5-min Rain = 0
KAM1 090925Z 23007KT 04/M08 A2981 RMK A01 T00441077  RH  041%=      5-min Rain = 0
KAM1 090926Z 23008KT 05/M08 A2981 RMK A01 T00451077  RH  041%=      5-min Rain = 0
KAM1 090927Z 23008KT 05/M08 A2981 RMK A01 T00451077  RH  041%=      5-min Rain = 0
KAM1 090928Z 23008KT 05/M08 A2981 RMK A01 T00461077  RH  040%=      5-min Rain = 0
KAM1 090929Z 23008KT 05/M08 A2981 RMK A01 T00481077  RH  040%=      5-min Rain = 0
KAM1 090930Z 23009KT 05/M08 A2981 RMK A01 T00491077  RH  040%=      5-min Rain = 0
KAM1 090931Z 23009KT 05/M08 A2981 RMK A01 T00501077  RH  039%=      5-min Rain = 0
KAM1 090932Z 23010KT 05/M08 A2981 RMK A01 T00511077  RH  039%=      5-min Rain = 0
KAM1 090933Z 23010KT 05/M08 A2981 RMK A01 T00531077  RH  039%=      5-min Rain = 0
KAM1 090934Z 23010KT 05/M08 A2981 RMK A01 T00541076  RH  038%=      5-min Rain = 0
KAM1 090935Z 23011KT 06/M08 A2981 RMK A01 T00551077  RH  038%=      5-min Rain = 0
KAM1 090936Z 23010KT 06/M08 A2981 RMK A01 T00571076  RH  038%=      5-min Rain = 0
KAM1 090937Z 23010KT 06/M08 A2981 RMK A01 T00581077  RH  037%=      5-min Rain = 0
KAM1 090938Z 23011KT 06/M08 A2981 RMK A01 T00581077  RH  037%=      5-min Rain = 0
KAM1 090939Z 23010KT 06/M08 A2981 RMK A01 T00581078  RH  037%=      5-min Rain = 0
KAM1 090940Z 23010KT 06/M08 A2981 RMK A01 T00581078  RH  037%=      5-min Rain = 0
KAM1 090941Z 24009KT 06/M08 A2981 RMK A01 T00571078  RH  037%=      5-min Rain = 0
KAM1 090942Z 24010KT 06/M08 A2981 RMK A01 T00561079  RH  037%=      5-min Rain = 0
KAM1 090943Z 23008KT 06/M08 A2981 RMK A01 T00561079  RH  037%=      5-min Rain = 0
KAM1 090944Z 23008KT 06/M08 A2981 RMK A01 T00561079  RH  037%=      5-min Rain = 0
KAM1 090945Z 24008KT 06/M08 A2981 RMK A01 T00551080  RH  037%=      5-min Rain = 0
KAM1 090946Z 24008KT 05/M08 A2981 RMK A01 T00541080  RH  037%=      5-min Rain = 0
KAM1 090947Z 24007KT 05/M08 A2981 RMK A01 T00531081  RH  038%=      5-min Rain = 0
KAM1 090948Z 24007KT 05/M08 A2981 RMK A01 T00521081  RH  038%=      5-min Rain = 0
KAM1 090949Z 24007KT 05/M08 A2981 RMK A01 T00511081  RH  038%=      5-min Rain = 0
KAM1 090950Z 23007KT 05/M08 A2981 RMK A01 T00511081  RH  038%=      5-min Rain = 0
KAM1 090951Z 23008KT 05/M08 A2981 RMK A01 T00491082  RH  038%=      5-min Rain = 0
KAM1 090952Z 23007KT 05/M08 A298 RMK A01 T00481082  RH  038%=      5-min Rain = 0
KAM1 090953Z 23007KT 05/M08 A298 RMK A01 T00471083  RH  039%=      5-min Rain = 0
KAM1 090954Z 23007KT 05/M08 A298 RMK A01 T00461082  RH  039%=      5-min Rain = 0
KAM1 090955Z 23007KT 05/M08 A298 RMK A01 T00451082  RH  039%=      5-min Rain = 0
KAM1 090956Z 23007KT 04/M08 A298 RMK A01 T00441083  RH  039%=      5-min Rain = 0
KAM1 090957Z 23007KT 04/M08 A298 RMK A01 T00441082  RH  039%=      5-min Rain = 0
KAM1 090958Z 23007KT 04/M08 A298 RMK A01 T00431083  RH  039%=      5-min Rain = 0
KAM1 090959Z 23007KT 04/M08 A298 RMK A01 T00431083  RH  040%=      5-min Rain = 0
KAM1 091000Z 23008KT 04/M08 A298 RMK A01 T00431083  RH  040%=      5-min Rain = 0
KAM1 091001Z 24007KT 04/M08 A298 RMK A01 T00421083  RH  040%=      5-min Rain = 0
KAM1 091002Z 24007KT 04/M08 A2981 RMK A01 T00411084  RH  040%=      5-min Rain = 0
KAM1 091003Z 24007KT 04/M08 A2981 RMK A01 T00401084  RH  040%=      5-min Rain = 0
KAM1 091004Z 24006KT 04/M08 A2981 RMK A01 T00391084  RH  040%=      5-min Rain = 0
KAM1 091005Z 25006KT 04/M08 A2981 RMK A01 T00381084  RH  041%=      5-min Rain = 0
KAM1 091006Z 25006KT 04/M09 A2981 RMK A01 T00361085  RH  041%=      5-min Rain = 0
KAM1 091007Z 25005KT 04/M09 A2981 RMK A01 T00361085  RH  041%=      5-min Rain = 0
KAM1 091008Z 26004KT 03/M09 A2981 RMK A01 T00341086  RH  041%=      5-min Rain = 0
KAM1 091009Z 26004KT 03/M09 A2981 RMK A01 T00331087  RH  041%=      5-min Rain = 0
KAM1 091010Z 27003KT 03/M09 A2981 RMK A01 T00311087  RH  042%=      5-min Rain = 0
KAM1 091011Z 27003KT 03/M09 A2981 RMK A01 T00281089  RH  042%=      5-min Rain = 0
KAM1 091012Z 27003KT 03/M09 A2981 RMK A01 T00251090  RH  043%=      5-min Rain = 0
KAM1 091013Z 27003KT 02/M09 A2981 RMK A01 T00221089  RH  044%=      5-min Rain = 0
KAM1 091014Z 27003KT 02/M09 A2981 RMK A01 T00221088  RH  044%=      5-min Rain = 0
KAM1 091015Z 26004KT 02/M09 A2981 RMK A01 T00221086  RH  045%=      5-min Rain = 0
KAM1 091016Z 26004KT 02/M09 A2981 RMK A01 T00241085  RH  044%=      5-min Rain = 0
KAM1 091017Z 26005KT 03/M09 A2981 RMK A01 T00261085  RH  044%=      5-min Rain = 0
KAM1 091018Z 26005KT 03/M09 A298 RMK A01 T00271086  RH  043%=      5-min Rain = 0
KAM1 091019Z 25005KT 03/M09 A298 RMK A01 T00281087  RH  043%=      5-min Rain = 0
KAM1 091020Z 25006KT 03/M09 A2981 RMK A01 T00281087  RH  043%=      5-min Rain = 0
KAM1 091021Z 25006KT 03/M09 A2981 RMK A01 T00281087  RH  042%=      5-min Rain = 0
KAM1 091022Z 25007KT 03/M09 A2981 RMK A01 T00281088  RH  042%=      5-min Rain = 0
KAM1 091023Z 25007KT 03/M09 A2981 RMK A01 T00281089  RH  042%=      5-min Rain = 0
KAM1 091024Z 24008KT 03/M09 A2981 RMK A01 T00291089  RH  042%=      5-min Rain = 0
KAM1 091025Z 25008KT 03/M09 A2981 RMK A01 T00281090  RH  042%=      5-min Rain = 0
KAM1 091026Z 25007KT 03/M09 A2981 RMK A01 T00281090  RH  041%=      5-min Rain = 0
KAM1 091027Z 26006KT 03/M09 A2981 RMK A01 T00291089  RH  041%=      5-min Rain = 0
KAM1 091028Z 26006KT 03/M09 A2981 RMK A01 T00291090  RH  041%=      5-min Rain = 0
KAM1 091029Z 27005KT 03/M09 A2981 RMK A01 T00291090  RH  041%=      5-min Rain = 0
KAM1 091030Z 29004KT 03/M09 A2981 RMK A01 T00271090  RH  042%=      5-min Rain = 0
KAM1 091031Z 29005KT 02/M09 A2981 RMK A01 T00241089  RH  043%=      5-min Rain = 0
KAM1 091032Z 29005KT 02/M09 A2981 RMK A01 T00231088  RH  044%=      5-min Rain = 0
KAM1 091033Z 30005KT 02/M09 A2981 RMK A01 T00241086  RH  044%=      5-min Rain = 0
KAM1 091034Z 29006KT 03/M09 A2981 RMK A01 T00271085  RH  043%=      5-min Rain = 0
KAM1 091035Z 27006KT 03/M09 A2981 RMK A01 T00311085  RH  042%=      5-min Rain = 0
KAM1 091036Z 27006KT 04/M09 A2981 RMK A01 T00351085  RH  041%=      5-min Rain = 0
KAM1 091037Z 27007KT 04/M09 A2981 RMK A01 T00391086  RH  040%=      5-min Rain = 0
KAM1 091038Z 27006KT 04/M09 A2981 RMK A01 T00401087  RH  039%=      5-min Rain = 0
KAM1 091039Z 27006KT 04/M09 A2981 RMK A01 T00401088  RH  039%=      5-min Rain = 0
KAM1 091040Z 26007KT 04/M09 A298 RMK A01 T00401089  RH  038%=      5-min Rain = 0
KAM1 091041Z 26007KT 04/M09 A298 RMK A01 T00391090  RH  038%=      5-min Rain = 0
KAM1 091042Z 26007KT 04/M09 A298 RMK A01 T00381092  RH  038%=      5-min Rain = 0
KAM1 091043Z 26008KT 04/M09 A298 RMK A01 T00371093  RH  038%=      5-min Rain = 0
KAM1 091044Z 25008KT 04/M09 A298 RMK A01 T00351094  RH  038%=      5-min Rain = 0
KAM1 091045Z 25008KT 03/M10 A298 RMK A01 T00321095  RH  039%=      5-min Rain = 0
KAM1 091046Z 25008KT 03/M10 A298 RMK A01 T00301095  RH  039%=      5-min Rain = 0
KAM1 091047Z 25008KT 03/M10 A298 RMK A01 T00291095  RH  040%=      5-min Rain = 0
KAM1 091048Z 25008KT 03/M10 A298 RMK A01 T00271096  RH  040%=      5-min Rain = 0
KAM1 091049Z 25008KT 03/M10 A2981 RMK A01 T00261096  RH  040%=      5-min Rain = 0
KAM1 091050Z 25007KT 02/M10 A2981 RMK A01 T00241096  RH  041%=      5-min Rain = 0
KAM1 091051Z 25006KT 02/M10 A2981 RMK A01 T00231097  RH  041%=      5-min Rain = 0
KAM1 091052Z 26006KT 02/M10 A298 RMK A01 T00221097  RH  041%=      5-min Rain = 0
KAM1 091053Z 26006KT 02/M10 A298 RMK A01 T00201097  RH  041%=      5-min Rain = 0
KAM1 091054Z 26006KT 02/M10 A298 RMK A01 T00181098  RH  042%=      5-min Rain = 0
KAM1 091055Z 26006KT 02/M10 A298 RMK A01 T00171098  RH  042%=      5-min Rain = 0
KAM1 091056Z 26006KT 02/M10 A298 RMK A01 T00161098  RH  043%=      5-min Rain = 0
KAM1 091057Z 26006KT 01/M10 A298 RMK A01 T00141098  RH  043%=      5-min Rain = 0
KAM1 091058Z 26007KT 01/M10 A298 RMK A01 T00131098  RH  043%=      5-min Rain = 0
KAM1 091059Z 26007KT 01/M10 A298 RMK A01 T00121099  RH  043%=      5-min Rain = 0
KAM1 091100Z 26007KT 01/M10 A298 RMK A01 T00121099  RH  043%=      5-min Rain = 0
KAM1 091101Z 25007KT 01/M10 A298 RMK A01 T00121099  RH  043%=      5-min Rain = 0
KAM1 091102Z 25007KT 01/M10 A298 RMK A01 T00121099  RH  043%=      5-min Rain = 0
KAM1 091103Z 25007KT 01/M10 A298 RMK A01 T00121098  RH  044%=      5-min Rain = 0
KAM1 091104Z 25006KT 01/M10 A298 RMK A01 T00131098  RH  043%=      5-min Rain = 0
KAM1 091105Z 25007KT 01/M10 A298 RMK A01 T00141098  RH  043%=      5-min Rain = 0
KAM1 091106Z 25007KT 02/M10 A298 RMK A01 T00151098  RH  043%=      5-min Rain = 0
KAM1 091107Z 25007KT 02/M10 A298 RMK A01 T00151097  RH  043%=      5-min Rain = 0
KAM1 091108Z 25007KT 02/M10 A298 RMK A01 T00161097  RH  043%=      5-min Rain = 0
KAM1 091109Z 26007KT 02/M10 A298 RMK A01 T00161096  RH  043%=      5-min Rain = 0
KAM1 091110Z 26007KT 02/M10 A298 RMK A01 T00181095  RH  043%=      5-min Rain = 0
KAM1 091111Z 26006KT 02/M10 A298 RMK A01 T00181095  RH  043%=      5-min Rain = 0
KAM1 091112Z 26006KT 02/M10 A298 RMK A01 T00191096  RH  042%=      5-min Rain = 0
KAM1 091113Z 25007KT 02/M10 A298 RMK A01 T00191096  RH  042%=      5-min Rain = 0
KAM1 091114Z 26007KT 02/M10 A298 RMK A01 T00191096  RH  042%=      5-min Rain = 0
KAM1 091115Z 26007KT 02/M10 A298 RMK A01 T00191097  RH  042%=      5-min Rain = 0
KAM1 091116Z 26007KT 02/M10 A298 RMK A01 T00191097  RH  042%=      5-min Rain = 0
KAM1 091117Z 25008KT 02/M10 A298 RMK A01 T00191097  RH  042%=      5-min Rain = 0
KAM1 091118Z 26008KT 02/M10 A298 RMK A01 T00191098  RH  042%=      5-min Rain = 0
KAM1 091119Z 26008KT 02/M10 A298 RMK A01 T00191098  RH  041%=      5-min Rain = 0
KAM1 091120Z 26008KT 02/M10 A298 RMK A01 T00191099  RH  041%=      5-min Rain = 0
KAM1 091121Z 26008KT 02/M10 A298 RMK A01 T00201099  RH  041%=      5-min Rain = 0
KAM1 091122Z 26007KT 02/M10 A298 RMK A01 T00201099  RH  041%=      5-min Rain = 0
KAM1 091123Z 26007KT 02/M10 A298 RMK A01 T00201098  RH  041%=      5-min Rain = 0
KAM1 091124Z 27007KT 02/M10 A298 RMK A01 T00191098  RH  041%=      5-min Rain = 0
KAM1 091125Z 27006KT 02/M10 A298 RMK A01 T00191098  RH  042%=      5-min Rain = 0
KAM1 091126Z 27006KT 02/M10 A298 RMK A01 T00191099  RH  041%=      5-min Rain = 0
KAM1 091127Z 27006KT 02/M10 A298 RMK A01 T00181101  RH  041%=      5-min Rain = 0
KAM1 091128Z 27005KT 02/M10 A298 RMK A01 T00181101  RH  041%=      5-min Rain = 0
KAM1 091129Z 27005KT 02/M10 A298 RMK A01 T00171102  RH  041%=      5-min Rain = 0
KAM1 091130Z 27005KT 02/M10 A298 RMK A01 T00171103  RH  041%=      5-min Rain = 0
KAM1 091131Z 27005KT 02/M10 A298 RMK A01 T00171103  RH  041%=      5-min Rain = 0
KAM1 091132Z 27005KT 02/M10 A298 RMK A01 T00161104  RH  041%=      5-min Rain = 0
KAM1 091133Z 27006KT 02/M10 A298 RMK A01 T00161104  RH  040%=      5-min Rain = 0
KAM1 091134Z 27006KT 02/M11 A298 RMK A01 T00151105  RH  040%=      5-min Rain = 0
KAM1 091135Z 27006KT 02/M11 A298 RMK A01 T00151105  RH  040%=      5-min Rain = 0
KAM1 091136Z 27006KT 02/M11 A298 RMK A01 T00151105  RH  040%=      5-min Rain = 0
KAM1 091137Z 27006KT 01/M11 A298 RMK A01 T00141106  RH  040%=      5-min Rain = 0
KAM1 091138Z 27006KT 01/M11 A298 RMK A01 T00141106  RH  040%=      5-min Rain = 0
KAM1 091139Z 27006KT 01/M11 A298 RMK A01 T00141106  RH  040%=      5-min Rain = 0
KAM1 091140Z 26008KT 01/M11 A298 RMK A01 T00141106  RH  040%=      5-min Rain = 0
KAM1 091141Z 26007KT 01/M11 A298 RMK A01 T00141106  RH  041%=      5-min Rain = 0
KAM1 091142Z 26008KT 01/M11 A298 RMK A01 T00141106  RH  041%=      5-min Rain = 0
KAM1 091143Z 26008KT 01/M11 A298 RMK A01 T00141106  RH  041%=      5-min Rain = 0
KAM1 091144Z 26008KT 01/M11 A298 RMK A01 T00141106  RH  041%=      5-min Rain = 0
KAM1 091145Z 26008KT 01/M11 A298 RMK A01 T00131106  RH  041%=      5-min Rain = 0
KAM1 091146Z 26007KT 01/M11 A298 RMK A01 T00121106  RH  041%=      5-min Rain = 0
KAM1 091147Z 26007KT 01/M11 A298 RMK A01 T00111107  RH  041%=      5-min Rain = 0
KAM1 091148Z 26007KT 01/M11 A298 RMK A01 T00101107  RH  041%=      5-min Rain = 0
KAM1 091149Z 27007KT 01/M11 A298 RMK A01 T00101107  RH  041%=      5-min Rain = 0
KAM1 091150Z 26008KT 01/M11 A298 RMK A01 T00101107  RH  041%=      5-min Rain = 0
KAM1 091151Z 26008KT 01/M11 A298 RMK A01 T00091107  RH  041%=      5-min Rain = 0
KAM1 091152Z 26008KT 01/M11 A298 RMK A01 T00101106  RH  042%=      5-min Rain = 0
KAM1 091153Z 26009KT 01/M11 A298 RMK A01 T00111106  RH  041%=      5-min Rain = 0
KAM1 091154Z 26009KT 01/M11 A298 RMK A01 T00121107  RH  041%=      5-min Rain = 0
KAM1 091155Z 26009KT 01/M11 A298 RMK A01 T00131107  RH  040%=      5-min Rain = 0
KAM1 091156Z 26010KT 01/M11 A298 RMK A01 T00141107  RH  040%=      5-min Rain = 0
KAM1 091157Z 26010KT 02/M11 A298 RMK A01 T00151108  RH  040%=      5-min Rain = 0
KAM1 091158Z 25010KT 02/M11 A298 RMK A01 T00161108  RH  039%=      5-min Rain = 0
KAM1 091159Z 26009KT 02/M11 A298 RMK A01 T00161108  RH  039%=      5-min Rain = 0
KAM1 091200Z 26009KT 02/M11 A298 RMK A01 T00171109  RH  039%=      5-min Rain = 0
KAM1 091201Z 26009KT 02/M11 A298 RMK A01 T00171109  RH  039%=      5-min Rain = 0
KAM1 091202Z 26009KT 02/M11 A298 RMK A01 T00171109  RH  039%=      5-min Rain = 0
KAM1 091203Z 26008KT 02/M11 A298 RMK A01 T00171109  RH  039%=      5-min Rain = 0
KAM1 091204Z 26009KT 02/M11 A298 RMK A01 T00171109  RH  039%=      5-min Rain = 0
KAM1 091205Z 25009KT 02/M11 A298 RMK A01 T00161109  RH  039%=      5-min Rain = 0
KAM1 091206Z 26009KT 02/M11 A298 RMK A01 T00151110  RH  039%=      5-min Rain = 0
KAM1 091207Z 25009KT 01/M11 A298 RMK A01 T00141110  RH  039%=      5-min Rain = 0
KAM1 091208Z 26010KT 01/M11 A298 RMK A01 T00141111  RH  039%=      5-min Rain = 0
KAM1 091209Z 26010KT 01/M11 A298 RMK A01 T00141111  RH  039%=      5-min Rain = 0
KAM1 091210Z 26010KT 01/M11 A298 RMK A01 T00131112  RH  039%=      5-min Rain = 0
KAM1 091211Z 26009KT 01/M11 A298 RMK A01 T00141112  RH  039%=      5-min Rain = 0
KAM1 091212Z 26009KT 01/M11 A298 RMK A01 T00131112  RH  039%=      5-min Rain = 0
KAM1 091213Z 26009KT 01/M11 A298 RMK A01 T00131112  RH  039%=      5-min Rain = 0
KAM1 091214Z 26008KT 01/M11 A298 RMK A01 T00121112  RH  039%=      5-min Rain = 0
KAM1 091215Z 26008KT 01/M11 A298 RMK A01 T00111113  RH  039%=      5-min Rain = 0
KAM1 091216Z 26008KT 01/M11 A2981 RMK A01 T00101113  RH  039%=      5-min Rain = 0
KAM1 091217Z 26009KT 01/M11 A2981 RMK A01 T00101113  RH  039%=      5-min Rain = 0
KAM1 091218Z 25008KT 01/M11 A2981 RMK A01 T00091113  RH  040%=      5-min Rain = 0
KAM1 091219Z 25008KT 01/M11 A2981 RMK A01 T00081114  RH  040%=      5-min Rain = 0
KAM1 091220Z 25009KT 01/M11 A2981 RMK A01 T00071114  RH  040%=      5-min Rain = 0
KAM1 091221Z 25009KT 01/M12 A2981 RMK A01 T00061115  RH  040%=      5-min Rain = 0
KAM1 091222Z 25009KT 01/M12 A2981 RMK A01 T00061115  RH  040%=      5-min Rain = 0
KAM1 091223Z 25009KT 01/M12 A2981 RMK A01 T00061115  RH  040%=      5-min Rain = 0
KAM1 091224Z 25010KT 01/M12 A2981 RMK A01 T00061115  RH  040%=      5-min Rain = 0
KAM1 091225Z 25009KT 01/M11 A2981 RMK A01 T00051114  RH  040%=      5-min Rain = 0
KAM1 091226Z 25009KT 00/M12 A2981 RMK A01 T00041115  RH  040%=      5-min Rain = 0
KAM1 091227Z 25009KT 00/M12 A2981 RMK A01 T00041115  RH  040%=      5-min Rain = 0
KAM1 091228Z 25008KT 00/M12 A2981 RMK A01 T00041115  RH  040%=      5-min Rain = 0
KAM1 091229Z 25008KT 00/M12 A2981 RMK A01 T00041115  RH  040%=      5-min Rain = 0
KAM1 091230Z 25008KT 00/M12 A2981 RMK A01 T00041115  RH  040%=      5-min Rain = 0
KAM1 091231Z 25008KT 00/M12 A2981 RMK A01 T00041115  RH  041%=      5-min Rain = 0
KAM1 091232Z 25008KT 00/M12 A2981 RMK A01 T00021116  RH  041%=      5-min Rain = 0
KAM1 091233Z 25007KT 00/M12 A2981 RMK A01 T00021116  RH  041%=      5-min Rain = 0
KAM1 091234Z 25008KT 00/M12 A2981 RMK A01 T00011116  RH  041%=      5-min Rain = 0
KAM1 091235Z 25008KT 00/M12 A2981 RMK A01 T00011116  RH  041%=      5-min Rain = 0
KAM1 091236Z 25008KT 00/12 A2981 RMK A01 T00000-116  RH  041%=      5-min Rain = 0
KAM1 091237Z 25008KT 00/12 A2981 RMK A01 T00000-116  RH  041%=      5-min Rain = 0
KAM1 091238Z 25008KT M00/M12 A2981 RMK A01 T10011116  RH  041%=      5-min Rain = 0
KAM1 091239Z 25008KT M00/M12 A2981 RMK A01 T10021117  RH  042%=      5-min Rain = 0
KAM1 091240Z 25008KT M00/M12 A2981 RMK A01 T10021117  RH  042%=      5-min Rain = 0
KAM1 091241Z 26007KT M00/M12 A2981 RMK A01 T10031117  RH  042%=      5-min Rain = 0
KAM1 091242Z 25007KT M00/M12 A2981 RMK A01 T10041117  RH  042%=      5-min Rain = 0
KAM1 091243Z 26007KT M00/M12 A2981 RMK A01 T10041117  RH  042%=      5-min Rain = 0
KAM1 091244Z 25007KT M01/M12 A2981 RMK A01 T10051118  RH  042%=      5-min Rain = 0
KAM1 091245Z 25007KT M01/M12 A2981 RMK A01 T10061118  RH  042%=      5-min Rain = 0
KAM1 091246Z 25007KT M01/M12 A2981 RMK A01 T10061118  RH  042%=      5-min Rain = 0
KAM1 091247Z 26007KT M01/M12 A2981 RMK A01 T10061118  RH  043%=      5-min Rain = 0
KAM1 091248Z 26007KT M01/M12 A2981 RMK A01 T10071118  RH  043%=      5-min Rain = 0
KAM1 091249Z 26007KT M01/M12 A2981 RMK A01 T10081119  RH  043%=      5-min Rain = 0
KAM1 091250Z 26006KT M01/M12 A2981 RMK A01 T10091119  RH  043%=      5-min Rain = 0
KAM1 091251Z 27006KT M01/M12 A2981 RMK A01 T10101119  RH  044%=      5-min Rain = 0
KAM1 091252Z 27005KT M01/M12 A2981 RMK A01 T10111118  RH  044%=      5-min Rain = 0
KAM1 091253Z 27005KT M01/M12 A2981 RMK A01 T10121118  RH  044%=      5-min Rain = 0
KAM1 091254Z 27005KT M01/M12 A2981 RMK A01 T10131118  RH  044%=      5-min Rain = 0
KAM1 091255Z 28006KT M01/M12 A2981 RMK A01 T10131119  RH  045%=      5-min Rain = 0
KAM1 091256Z 28006KT M01/M12 A2982 RMK A01 T10131119  RH  045%=      5-min Rain = 0
KAM1 091257Z 29006KT M01/M12 A2982 RMK A01 T10131119  RH  045%=      5-min Rain = 0
KAM1 091258Z 28006KT M01/M12 A2982 RMK A01 T10131119  RH  044%=      5-min Rain = 0
KAM1 091259Z 28006KT M01/M12 A2982 RMK A01 T10131119  RH  044%=      5-min Rain = 0
KAM1 091300Z 28006KT M01/M12 A2982 RMK A01 T10131119  RH  044%=      5-min Rain = 0
KAM1 091301Z 28005KT M01/M12 A2982 RMK A01 T10131120  RH  044%=      5-min Rain = 0
KAM1 091302Z 28004KT M01/M12 A2982 RMK A01 T10131120  RH  044%=      5-min Rain = 0
KAM1 091303Z 26005KT M01/M12 A2982 RMK A01 T10121120  RH  044%=      5-min Rain = 0
KAM1 091304Z 26005KT M01/M12 A2982 RMK A01 T10111119  RH  044%=      5-min Rain = 0
KAM1 091305Z 26005KT M01/M12 A2982 RMK A01 T10091118  RH  043%=      5-min Rain = 0
KAM1 091306Z 26005KT M01/M12 A2982 RMK A01 T10071118  RH  043%=      5-min Rain = 0
KAM1 091307Z 27005KT M01/M12 A2982 RMK A01 T10051117  RH  042%=      5-min Rain = 0
KAM1 091308Z 27005KT M00/M12 A2982 RMK A01 T10021116  RH  042%=      5-min Rain = 0
KAM1 091309Z 28006KT 00/M12 A2982 RMK A01 T00011116  RH  041%=      5-min Rain = 0
KAM1 091310Z 28006KT 00/M12 A2982 RMK A01 T00021116  RH  041%=      5-min Rain = 0
KAM1 091311Z 28006KT 00/M12 A2982 RMK A01 T00031116  RH  040%=      5-min Rain = 0
KAM1 091312Z 28007KT 00/M12 A2982 RMK A01 T00041115  RH  040%=      5-min Rain = 0
KAM1 091313Z 28007KT 01/M11 A2982 RMK A01 T00061113  RH  041%=      5-min Rain = 0
KAM1 091314Z 28007KT 01/M11 A2982 RMK A01 T00081110  RH  041%=      5-min Rain = 0
KAM1 091315Z 28007KT 01/M11 A2982 RMK A01 T00111110  RH  040%=      5-min Rain = 0
KAM1 091316Z 28007KT 01/M11 A2982 RMK A01 T00141110  RH  039%=      5-min Rain = 0
KAM1 091317Z 28007KT 02/M11 A2982 RMK A01 T00161111  RH  038%=      5-min Rain = 0
KAM1 091318Z 27006KT 02/M11 A2982 RMK A01 T00181112  RH  038%=      5-min Rain = 0
KAM1 091319Z 27006KT 02/M11 A2982 RMK A01 T00191112  RH  037%=      5-min Rain = 0
KAM1 091320Z 27006KT 02/M11 A2982 RMK A01 T00191112  RH  037%=      5-min Rain = 0
KAM1 091321Z 27005KT 02/M11 A2982 RMK A01 T00191113  RH  037%=      5-min Rain = 0
KAM1 091322Z 27005KT 02/M11 A2982 RMK A01 T00181113  RH  037%=      5-min Rain = 0
KAM1 091323Z 25005KT 02/M11 A2983 RMK A01 T00171113  RH  037%=      5-min Rain = 0
KAM1 091324Z 24006KT 02/M11 A2983 RMK A01 T00151112  RH  038%=      5-min Rain = 0
KAM1 091325Z 24007KT 01/M11 A2983 RMK A01 T00131113  RH  039%=      5-min Rain = 0
KAM1 091326Z 24007KT 01/M12 A2982 RMK A01 T00101115  RH  039%=      5-min Rain = 0
KAM1 091327Z 24007KT 01/M12 A2982 RMK A01 T00081116  RH  039%=      5-min Rain = 0
KAM1 091328Z 24007KT 01/M12 A2982 RMK A01 T00071117  RH  039%=      5-min Rain = 0
KAM1 091329Z 25007KT 01/M12 A2982 RMK A01 T00071117  RH  039%=      5-min Rain = 0
KAM1 091330Z 26007KT 01/M12 A2983 RMK A01 T00071117  RH  039%=      5-min Rain = 0
KAM1 091331Z 26007KT 01/M12 A2982 RMK A01 T00081116  RH  039%=      5-min Rain = 0
KAM1 091332Z 26007KT 01/M12 A2982 RMK A01 T00091116  RH  039%=      5-min Rain = 0
KAM1 091333Z 26007KT 01/M12 A2982 RMK A01 T00091116  RH  039%=      5-min Rain = 0
KAM1 091334Z 27007KT 01/M12 A2982 RMK A01 T00091116  RH  039%=      5-min Rain = 0
KAM1 091335Z 27007KT 01/M12 A2982 RMK A01 T00091116  RH  039%=      5-min Rain = 0
KAM1 091336Z 27007KT 01/M12 A2982 RMK A01 T00091115  RH  039%=      5-min Rain = 0
KAM1 091337Z 26008KT 01/M12 A2982 RMK A01 T00101115  RH  039%=      5-min Rain = 0
KAM1 091338Z 26007KT 01/M11 A2982 RMK A01 T00101114  RH  039%=      5-min Rain = 0
KAM1 091339Z 26007KT 01/M11 A2983 RMK A01 T00101114  RH  039%=      5-min Rain = 0
KAM1 091340Z 26006KT 01/M11 A2983 RMK A01 T00101114  RH  039%=      5-min Rain = 0
KAM1 091341Z 27006KT 01/M11 A2983 RMK A01 T00101113  RH  039%=      5-min Rain = 0
KAM1 091342Z 26006KT 01/M11 A2983 RMK A01 T00101113  RH  039%=      5-min Rain = 0
KAM1 091343Z 26007KT 01/M11 A2983 RMK A01 T00111112  RH  040%=      5-min Rain = 0
KAM1 091344Z 26007KT 01/M11 A2983 RMK A01 T00111110  RH  040%=      5-min Rain = 0
KAM1 091345Z 26007KT 01/M11 A2983 RMK A01 T00111109  RH  040%=      5-min Rain = 0
KAM1 091346Z 26006KT 01/M11 A2983 RMK A01 T00111107  RH  041%=      5-min Rain = 0
KAM1 091347Z 27006KT 01/M11 A2983 RMK A01 T00121106  RH  041%=      5-min Rain = 0
KAM1 091348Z 27006KT 01/M10 A2983 RMK A01 T00121103  RH  042%=      5-min Rain = 0
KAM1 091349Z 27005KT 01/M10 A2983 RMK A01 T00141101  RH  042%=      5-min Rain = 0
KAM1 091350Z 28005KT 02/M10 A2983 RMK A01 T00171100  RH  042%=      5-min Rain = 0
KAM1 091351Z 28005KT 02/M10 A2983 RMK A01 T00191100  RH  041%=      5-min Rain = 0
KAM1 091352Z 28005KT 02/M10 A2983 RMK A01 T00211101  RH  040%=      5-min Rain = 0
KAM1 091353Z 27005KT 02/M10 A2983 RMK A01 T00231100  RH  040%=      5-min Rain = 0
KAM1 091354Z 27005KT 03/M10 A2983 RMK A01 T00251100  RH  039%=      5-min Rain = 0
KAM1 091355Z 27006KT 03/M10 A2983 RMK A01 T00261099  RH  039%=      5-min Rain = 0
KAM1 091356Z 27006KT 03/M10 A2983 RMK A01 T00271098  RH  039%=      5-min Rain = 0
KAM1 091357Z 27005KT 03/M10 A2983 RMK A01 T00291098  RH  039%=      5-min Rain = 0
KAM1 091358Z 26006KT 03/M10 A2983 RMK A01 T00311098  RH  038%=      5-min Rain = 0
KAM1 091359Z 26006KT 03/M10 A2983 RMK A01 T00321098  RH  038%=      5-min Rain = 0
KAM1 091400Z 26006KT 03/M10 A2983 RMK A01 T00331097  RH  038%=      5-min Rain = 0
KAM1 091401Z 26005KT 03/M10 A2983 RMK A01 T00341096  RH  038%=      5-min Rain = 0
KAM1 091402Z 27005KT 04/M10 A2983 RMK A01 T00351096  RH  038%=      5-min Rain = 0
KAM1 091403Z 27005KT 04/M10 A2983 RMK A01 T00371097  RH  037%=      5-min Rain = 0
KAM1 091404Z 27005KT 04/M10 A2983 RMK A01 T00381097  RH  037%=      5-min Rain = 0
KAM1 091405Z 26005KT 04/M10 A2983 RMK A01 T00401096  RH  037%=      5-min Rain = 0
KAM1 091406Z 26005KT 04/M10 A2983 RMK A01 T00411096  RH  036%=      5-min Rain = 0
KAM1 091407Z 26005KT 04/M10 A2983 RMK A01 T00421095  RH  036%=      5-min Rain = 0
KAM1 091408Z 26004KT 04/M09 A2983 RMK A01 T00431094  RH  036%=      5-min Rain = 0
KAM1 091409Z 26005KT 04/M09 A2983 RMK A01 T00441094  RH  036%=      5-min Rain = 0
KAM1 091410Z 26005KT 05/M09 A2983 RMK A01 T00451094  RH  036%=      5-min Rain = 0
KAM1 091411Z 25004KT 05/M09 A2983 RMK A01 T00461093  RH  036%=      5-min Rain = 0
KAM1 091412Z 25004KT 05/M09 A2983 RMK A01 T00471091  RH  036%=      5-min Rain = 0
KAM1 091413Z 25004KT 05/M09 A2983 RMK A01 T00471091  RH  036%=      5-min Rain = 0
KAM1 091414Z 25003KT 05/M09 A2983 RMK A01 T00481091  RH  036%=      5-min Rain = 0
KAM1 091415Z 26004KT 05/M09 A2983 RMK A01 T00491091  RH  036%=      5-min Rain = 0
KAM1 091416Z 25004KT 05/M09 A2983 RMK A01 T00491094  RH  035%=      5-min Rain = 0
KAM1 091417Z 25005KT 05/M10 A2983 RMK A01 T00501097  RH  034%=      5-min Rain = 0
KAM1 091418Z 25005KT 05/M10 A2983 RMK A01 T00501097  RH  033%=      5-min Rain = 0
KAM1 091419Z 26005KT 05/M10 A2983 RMK A01 T00511097  RH  033%=      5-min Rain = 0
KAM1 091420Z 26004KT 05/M10 A2983 RMK A01 T00531097  RH  033%=      5-min Rain = 0
KAM1 091421Z 26005KT 05/M10 A2983 RMK A01 T00541097  RH  033%=      5-min Rain = 0
KAM1 091422Z 26005KT 06/M10 A2983 RMK A01 T00561097  RH  032%=      5-min Rain = 0
KAM1 091423Z 26005KT 06/M10 A2983 RMK A01 T00571097  RH  032%=      5-min Rain = 0
KAM1 091424Z 26006KT 06/M10 A2983 RMK A01 T00591097  RH  032%=      5-min Rain = 0
KAM1 091425Z 26006KT 06/M10 A2983 RMK A01 T00611096  RH  031%=      5-min Rain = 0
KAM1 091426Z 27005KT 06/M09 A2983 RMK A01 T00631094  RH  031%=      5-min Rain = 0
KAM1 091427Z 27005KT 07/M09 A2983 RMK A01 T00671092  RH  031%=      5-min Rain = 0
KAM1 091428Z 27005KT 07/M09 A2983 RMK A01 T00691091  RH  031%=      5-min Rain = 0
KAM1 091429Z 27006KT 07/M09 A2983 RMK A01 T00721092  RH  030%=      5-min Rain = 0
KAM1 091430Z 27006KT 08/M09 A2983 RMK A01 T00751093  RH  029%=      5-min Rain = 0
KAM1 091431Z 27006KT 08/M09 A2983 RMK A01 T00781094  RH  028%=      5-min Rain = 0
KAM1 091432Z 27006KT 08/M09 A2983 RMK A01 T00801094  RH  028%=      5-min Rain = 0
KAM1 091433Z 27005KT 08/M09 A2983 RMK A01 T00821094  RH  028%=      5-min Rain = 0
KAM1 091434Z 27006KT 09/M09 A2983 RMK A01 T00851091  RH  028%=      5-min Rain = 0
KAM1 091435Z 27005KT 09/M09 A2983 RMK A01 T00851093  RH  027%=      5-min Rain = 0
KAM1 091436Z 28005KT 09/M09 A2983 RMK A01 T00861092  RH  027%=      5-min Rain = 0
KAM1 091437Z 28006KT 09/M09 A2984 RMK A01 T00871092  RH  027%=      5-min Rain = 0
KAM1 091438Z 28006KT 09/M09 A2984 RMK A01 T00871093  RH  027%=      5-min Rain = 0
KAM1 091439Z 28006KT 09/M09 A2984 RMK A01 T00861092  RH  027%=      5-min Rain = 0
KAM1 091440Z 28006KT 09/M09 A2984 RMK A01 T00861089  RH  028%=      5-min Rain = 0
KAM1 091441Z 28006KT 09/M09 A2984 RMK A01 T00871086  RH  028%=      5-min Rain = 0
KAM1 091442Z 29006KT 09/M08 A2984 RMK A01 T00891084  RH  028%=      5-min Rain = 0
KAM1 091443Z 29007KT 09/M09 A2984 RMK A01 T00941090  RH  026%=      5-min Rain = 0
KAM1 091444Z 29008KT 10/M10 A2984 RMK A01 T01001097  RH  024%=      5-min Rain = 0
KAM1 091445Z 29006KT 10/M10 A2984 RMK A01 T01031100  RH  023%=      5-min Rain = 0
KAM1 091446Z 29008KT 11/M10 A2984 RMK A01 T01051101  RH  022%=      5-min Rain = 0
KAM1 091447Z 29007KT 11/M10 A2984 RMK A01 T01061102  RH  022%=      5-min Rain = 0
KAM1 091448Z 29008KT 11/M10 A2984 RMK A01 T01081103  RH  022%=      5-min Rain = 0
KAM1 091449Z 28006KT 11/M10 A2984 RMK A01 T01091102  RH  022%=      5-min Rain = 0
KAM1 091450Z 29006KT 11/M10 A2984 RMK A01 T01111102  RH  021%=      5-min Rain = 0
KAM1 091451Z 28005KT 11/M10 A2984 RMK A01 T01121102  RH  021%=      5-min Rain = 0
KAM1 091452Z 28007KT 12/M10 A2984 RMK A01 T01151100  RH  021%=      5-min Rain = 0
KAM1 091453Z 29006KT 12/M10 A2984 RMK A01 T01171102  RH  020%=      5-min Rain = 0
KAM1 091454Z 30006KT 12/M10 A2984 RMK A01 T01191103  RH  020%=      5-min Rain = 0
KAM1 091455Z 30006KT 12/M10 A2984 RMK A01 T01221103  RH  020%=      5-min Rain = 0
KAM1 091456Z 30007KT 13/M10 A2984 RMK A01 T01251104  RH  019%=      5-min Rain = 0
KAM1 091457Z 31007KT 13/M11 A2984 RMK A01 T01271107  RH  019%=      5-min Rain = 0
KAM1 091458Z 31008KT 13/M11 A2984 RMK A01 T01291107  RH  018%=      5-min Rain = 0
KAM1 091459Z 30008KT 13/M11 A2984 RMK A01 T01321108  RH  018%=      5-min Rain = 0
KAM1 091500Z 31008KT 13/M11 A2984 RMK A01 T01331109  RH  017%=      5-min Rain = 0
KAM1 091501Z 31007KT 14/M11 A2984 RMK A01 T01361107  RH  017%=      5-min Rain = 0
KAM1 091502Z 30008KT 14/M11 A2984 RMK A01 T01391107  RH  017%=      5-min Rain = 0
KAM1 091503Z 31010KT 14/M11 A2984 RMK A01 T01401111  RH  016%=      5-min Rain = 0
KAM1 091504Z 30010KT 14/M11 A2984 RMK A01 T01411114  RH  016%=      5-min Rain = 0
KAM1 091505Z 30011KT 14/M12 A2984 RMK A01 T01411115  RH  016%=      5-min Rain = 0
KAM1 091506Z 30009KT 14/M12 A2984 RMK A01 T01411116  RH  016%=      5-min Rain = 0
KAM1 091507Z 31010KT 14/M12 A2984 RMK A01 T01411116  RH  016%=      5-min Rain = 0
KAM1 091508Z 31009KT 14/M12 A2984 RMK A01 T01421117  RH  016%=      5-min Rain = 0
KAM1 091509Z 31009KT 14/M12 A2984 RMK A01 T01431115  RH  016%=      5-min Rain = 0
KAM1 091510Z 31007KT 15/M11 A2984 RMK A01 T01451113  RH  016%=      5-min Rain = 0
KAM1 091511Z 30009KT 15/M11 A2984 RMK A01 T01471111  RH  016%=      5-min Rain = 0
KAM1 091512Z 31008KT 15/M11 A2984 RMK A01 T01481113  RH  015%=      5-min Rain = 0
KAM1 091513Z 31007KT 15/M11 A2984 RMK A01 T01491113  RH  015%=      5-min Rain = 0
KAM1 091514Z 31009KT 15/M11 A2984 RMK A01 T01501111  RH  015%=      5-min Rain = 0
KAM1 091515Z 31009KT 15/M11 A2984 RMK A01 T01521111  RH  015%=      5-min Rain = 0
KAM1 091516Z 31010KT 15/M11 A2984 RMK A01 T01521113  RH  015%=      5-min Rain = 0
KAM1 091517Z 32008KT 15/M11 A2984 RMK A01 T01521113  RH  015%=      5-min Rain = 0
KAM1 091518Z 32008KT 15/M11 A2984 RMK A01 T01541111  RH  015%=      5-min Rain = 0
KAM1 091519Z 32007G12KT 16/M11 A2984 RMK A01 T01561110  RH  015%=      5-min Rain = 0
KAM1 091520Z 31010KT 16/M11 A2984 RMK A01 T01561112  RH  015%=      5-min Rain = 0
KAM1 091521Z 31009KT 16/M11 A2984 RMK A01 T01561114  RH  014%=      5-min Rain = 0
KAM1 091522Z 31008KT 16/M11 A2984 RMK A01 T01561112  RH  015%=      5-min Rain = 0
KAM1 091523Z 32007KT 16/M11 A2985 RMK A01 T01561113  RH  015%=      5-min Rain = 0
KAM1 091524Z 31008KT 16/M11 A2985 RMK A01 T01571111  RH  015%=      5-min Rain = 0
KAM1 091525Z 32008KT 16/M11 A2985 RMK A01 T01601109  RH  015%=      5-min Rain = 0
KAM1 091526Z 32008KT 16/M11 A2985 RMK A01 T01611108  RH  015%=      5-min Rain = 0
KAM1 091527Z 32010KT 16/M11 A2985 RMK A01 T01631109  RH  014%=      5-min Rain = 0
KAM1 091528Z 33011KT 16/M11 A2985 RMK A01 T01631110  RH  014%=      5-min Rain = 0
KAM1 091529Z 32011KT 16/M11 A2985 RMK A01 T01621113  RH  014%=      5-min Rain = 0
KAM1 091530Z 32013KT 16/M11 A2985 RMK A01 T01611114  RH  014%=      5-min Rain = 0
KAM1 091531Z 32012KT 16/M11 A2985 RMK A01 T01601114  RH  014%=      5-min Rain = 0
KAM1 091532Z 33010KT 16/M11 A2985 RMK A01 T01601114  RH  014%=      5-min Rain = 0
KAM1 091533Z 33011KT 16/M11 A2985 RMK A01 T01601114  RH  014%=      5-min Rain = 0
KAM1 091534Z 33010KT 16/M11 A2985 RMK A01 T01601113  RH  014%=      5-min Rain = 0
KAM1 091535Z 33009KT 16/M11 A2985 RMK A01 T01621113  RH  014%=      5-min Rain = 0
KAM1 091536Z 33009KT 16/M11 A2985 RMK A01 T01631112  RH  014%=      5-min Rain = 0
KAM1 091537Z 32009KT 17/M11 A2985 RMK A01 T01651110  RH  014%=      5-min Rain = 0
KAM1 091538Z 32012KT 17/M11 A2985 RMK A01 T01661112  RH  014%=      5-min Rain = 0
KAM1 091539Z 33011KT 17/M12 A2985 RMK A01 T01661115  RH  013%=      5-min Rain = 0
KAM1 091540Z 34012KT 17/M12 A2985 RMK A01 T01651115  RH  014%=      5-min Rain = 0
KAM1 091541Z 33011KT 16/M12 A2985 RMK A01 T01641116  RH  014%=      5-min Rain = 0
KAM1 091542Z 33010KT 16/M12 A2985 RMK A01 T01641115  RH  014%=      5-min Rain = 0
KAM1 091543Z 33009KT 17/M11 A2985 RMK A01 T01671112  RH  014%=      5-min Rain = 0
KAM1 091544Z 34011KT 17/M11 A2985 RMK A01 T01681113  RH  014%=      5-min Rain = 0
KAM1 091545Z 33013KT 17/M12 A2985 RMK A01 T01691115  RH  013%=      5-min Rain = 0
KAM1 091546Z 33011KT 17/M12 A2986 RMK A01 T01691115  RH  013%=      5-min Rain = 0
KAM1 091547Z 33011KT 17/M12 A2986 RMK A01 T01691116  RH  013%=      5-min Rain = 0
KAM1 091548Z 32009KT 17/M11 A2986 RMK A01 T01701113  RH  013%=      5-min Rain = 0
KAM1 091549Z 32012KT 17/M11 A2986 RMK A01 T01731110  RH  013%=      5-min Rain = 0
KAM1 091550Z 32013KT 17/M12 A2986 RMK A01 T01721115  RH  013%=      5-min Rain = 0
KAM1 091551Z 32011KT 17/M12 A2986 RMK A01 T01701115  RH  013%=      5-min Rain = 0
KAM1 091552Z 32013KT 17/M12 A2986 RMK A01 T01691116  RH  013%=      5-min Rain = 0
KAM1 091553Z 32009KT 17/M12 A2986 RMK A01 T01671117  RH  013%=      5-min Rain = 0
KAM1 091554Z 32010KT 17/M11 A2986 RMK A01 T01681114  RH  013%=      5-min Rain = 0
KAM1 091555Z 33012KT 17/M11 A2986 RMK A01 T01701114  RH  013%=      5-min Rain = 0
KAM1 091556Z 32012KT 17/M12 A2986 RMK A01 T01701116  RH  013%=      5-min Rain = 0
KAM1 091557Z 34013KT 17/M12 A2986 RMK A01 T01701117  RH  013%=      5-min Rain = 0
KAM1 091558Z 34012KT 17/M12 A2986 RMK A01 T01711118  RH  013%=      5-min Rain = 0
KAM1 091559Z 34014G19KT 17/M12 A2986 RMK A01 T01711120  RH  013%=      5-min Rain = 0
KAM1 091600Z 34015KT 17/M12 A2986 RMK A01 T01711121  RH  012%=      5-min Rain = 0
KAM1 091601Z 34014KT 17/M12 A2986 RMK A01 T01701122  RH  012%=      5-min Rain = 0
KAM1 091602Z 33011KT 17/M12 A2986 RMK A01 T01691122  RH  012%=      5-min Rain = 0
KAM1 091603Z 34013KT 17/M12 A2986 RMK A01 T01721118  RH  013%=      5-min Rain = 0
KAM1 091604Z 34014KT 17/M12 A2986 RMK A01 T01731121  RH  012%=      5-min Rain = 0
KAM1 091605Z 34015KT 17/M12 A2986 RMK A01 T01711124  RH  012%=      5-min Rain = 0
KAM1 091606Z 34012G17KT 17/M12 A2986 RMK A01 T01711123  RH  012%=      5-min Rain = 0
KAM1 091607Z 33015KT 17/M12 A2986 RMK A01 T01721121  RH  012%=      5-min Rain = 0
KAM1 091608Z 33015KT 17/M12 A2986 RMK A01 T01721123  RH  012%=      5-min Rain = 0
KAM1 091609Z 33015KT 17/M12 A2986 RMK A01 T01721123  RH  012%=      5-min Rain = 0
KAM1 091610Z 35014KT 17/M12 A2986 RMK A01 T01721121  RH  012%=      5-min Rain = 0
KAM1 091611Z 35014KT 17/M12 A2986 RMK A01 T01741121  RH  012%=      5-min Rain = 0
KAM1 091612Z 35013KT 17/M12 A2986 RMK A01 T01741121  RH  012%=      5-min Rain = 0
KAM1 091613Z 34013KT 17/M12 A2986 RMK A01 T01741121  RH  012%=      5-min Rain = 0
KAM1 091614Z 35011G16KT 18/M12 A2986 RMK A01 T01751120  RH  012%=      5-min Rain = 0
KAM1 091615Z 35015KT 18/M12 A2986 RMK A01 T01771120  RH  012%=      5-min Rain = 0
KAM1 091616Z 36014KT 18/M12 A2986 RMK A01 T01761123  RH  012%=      5-min Rain = 0
KAM1 091617Z 35015KT 18/M12 A2986 RMK A01 T01751122  RH  012%=      5-min Rain = 0
KAM1 091618Z 34014KT 18/M12 A2986 RMK A01 T01751122  RH  012%=      5-min Rain = 0
KAM1 091619Z 34014KT 18/M12 A2986 RMK A01 T01751122  RH  012%=      5-min Rain = 0
KAM1 091620Z 34012KT 17/M12 A2986 RMK A01 T01741122  RH  012%=      5-min Rain = 0
KAM1 091621Z 35014KT 18/M12 A2986 RMK A01 T01751122  RH  012%=      5-min Rain = 0
KAM1 091622Z 35014KT 17/M12 A2986 RMK A01 T01741123  RH  012%=      5-min Rain = 0
KAM1 091623Z 34012KT 17/M12 A2986 RMK A01 T01731123  RH  012%=      5-min Rain = 0
KAM1 091624Z 34014KT 17/M12 A2986 RMK A01 T01741122  RH  012%=      5-min Rain = 0
KAM1 091625Z 35013KT 17/M12 A2986 RMK A01 T01741123  RH  012%=      5-min Rain = 0
KAM1 091626Z 00013KT 17/M12 A2986 RMK A01 T01741122  RH  012%=      5-min Rain = 0
KAM1 091627Z 35012KT 17/M12 A2986 RMK A01 T01741120  RH  012%=      5-min Rain = 0
KAM1 091628Z 35011G17KT 18/M12 A2986 RMK A01 T01751121  RH  012%=      5-min Rain = 0
KAM1 091629Z 35013KT 18/M12 A2986 RMK A01 T01761121  RH  012%=      5-min Rain = 0
KAM1 091630Z 00014KT 18/M12 A2986 RMK A01 T01761121  RH  012%=      5-min Rain = 0
KAM1 091631Z 36015KT 18/M12 A2986 RMK A01 T01771122  RH  012%=      5-min Rain = 0
KAM1 091632Z 35016KT 18/M12 A2986 RMK A01 T01761124  RH  012%=      5-min Rain = 0
KAM1 091633Z 35017KT 18/M13 A2986 RMK A01 T01751126  RH  012%=      5-min Rain = 0
KAM1 091634Z 35016G21KT 17/M12 A2986 RMK A01 T01741124  RH  012%=      5-min Rain = 0
KAM1 091635Z 36017KT 17/M13 A2986 RMK A01 T01731127  RH  012%=      5-min Rain = 0
KAM1 091636Z 35015KT 17/M13 A2986 RMK A01 T01721128  RH  012%=      5-min Rain = 0
KAM1 091637Z 35015KT 17/M13 A2986 RMK A01 T01721126  RH  012%=      5-min Rain = 0
KAM1 091638Z 35015KT 17/M13 A2986 RMK A01 T01721125  RH  012%=      5-min Rain = 0
KAM1 091639Z 36014KT 17/M12 A2986 RMK A01 T01741123  RH  012%=      5-min Rain = 0
KAM1 091640Z 00015KT 18/M12 A2986 RMK A01 T01761124  RH  012%=      5-min Rain = 0
KAM1 091641Z 36012KT 18/M12 A2986 RMK A01 T01751124  RH  012%=      5-min Rain = 0
KAM1 091642Z 35013KT 18/M12 A2986 RMK A01 T01771121  RH  012%=      5-min Rain = 0
KAM1 091643Z 35014KT 18/M12 A2986 RMK A01 T01781122  RH  012%=      5-min Rain = 0
KAM1 091644Z 34015KT 18/M12 A2986 RMK A01 T01791123  RH  012%=      5-min Rain = 0
KAM1 091645Z 36014KT 18/M12 A2986 RMK A01 T01771124  RH  012%=      5-min Rain = 0
KAM1 091646Z 36014G19KT 18/M12 A2986 RMK A01 T01781123  RH  012%=      5-min Rain = 0
KAM1 091647Z 36014KT 18/M13 A2986 RMK A01 T01781125  RH  011%=      5-min Rain = 0
KAM1 091648Z 00015KT 18/M13 A2986 RMK A01 T01781125  RH  012%=      5-min Rain = 0
KAM1 091649Z 35012KT 18/M12 A2986 RMK A01 T01801122  RH  012%=      5-min Rain = 0
KAM1 091650Z 36013KT 18/M12 A2986 RMK A01 T01831118  RH  012%=      5-min Rain = 0
KAM1 091651Z 35016KT 19/M12 A2986 RMK A01 T01851121  RH  011%=      5-min Rain = 0
KAM1 091652Z 36012KT 18/M13 A2986 RMK A01 T01811128  RH  011%=      5-min Rain = 0
KAM1 091653Z 36011KT 18/M12 A2986 RMK A01 T01801123  RH  012%=      5-min Rain = 0
KAM1 091654Z 35014KT 18/M12 A2986 RMK A01 T01841117  RH  012%=      5-min Rain = 0
KAM1 091655Z 35016KT 19/M12 A2986 RMK A01 T01851120  RH  011%=      5-min Rain = 0
KAM1 091656Z 36014KT 18/M12 A2986 RMK A01 T01831121  RH  012%=      5-min Rain = 0
KAM1 091657Z 36016KT 18/M12 A2986 RMK A01 T01841122  RH  011%=      5-min Rain = 0
KAM1 091658Z 35015KT 18/M12 A2986 RMK A01 T01841124  RH  011%=      5-min Rain = 0
KAM1 091659Z 34015KT 18/M12 A2986 RMK A01 T01841123  RH  011%=      5-min Rain = 0
KAM1 091700Z 35013KT 18/M12 A2986 RMK A01 T01831121  RH  012%=      5-min Rain = 0
KAM1 091701Z 35016KT 18/M12 A2986 RMK A01 T01831122  RH  011%=      5-min Rain = 0
KAM1 091702Z 35013G18KT 18/M12 A2986 RMK A01 T01831122  RH  011%=      5-min Rain = 0
KAM1 091703Z 36014KT 19/M12 A2986 RMK A01 T01851124  RH  011%=      5-min Rain = 0
KAM1 091704Z 00015G20KT 19/M12 A2986 RMK A01 T01861123  RH  011%=      5-min Rain = 0
KAM1 091705Z 36016KT 19/M12 A2986 RMK A01 T01861123  RH  011%=      5-min Rain = 0
KAM1 091706Z 36014KT 19/M12 A2986 RMK A01 T01851123  RH  011%=      5-min Rain = 0
KAM1 091707Z 00014KT 19/M12 A2986 RMK A01 T01861124  RH  011%=      5-min Rain = 0
KAM1 091708Z 00014KT 19/M12 A2986 RMK A01 T01861124  RH  011%=      5-min Rain = 0
KAM1 091709Z 36010KT 19/M12 A2986 RMK A01 T01891122  RH  011%=      5-min Rain = 0
KAM1 091710Z 35012KT 19/M12 A2986 RMK A01 T01921120  RH  011%=      5-min Rain = 0
KAM1 091711Z 00014KT 20/M12 A2986 RMK A01 T01951118  RH  011%=      5-min Rain = 0
KAM1 091712Z 35014KT 19/M12 A2986 RMK A01 T01941122  RH  011%=      5-min Rain = 0
KAM1 091713Z 36015KT 19/M12 A2986 RMK A01 T01921124  RH  011%=      5-min Rain = 0
KAM1 091714Z 35015KT 19/M12 A2986 RMK A01 T01911124  RH  011%=      5-min Rain = 0
KAM1 091715Z 35016KT 19/M13 A2986 RMK A01 T01901125  RH  011%=      5-min Rain = 0
KAM1 091716Z 36015KT 19/M13 A2986 RMK A01 T01901126  RH  011%=      5-min Rain = 0
KAM1 091717Z 36015G20KT 19/M13 A2986 RMK A01 T01901125  RH  011%=      5-min Rain = 0
KAM1 091718Z 00015KT 19/M12 A2986 RMK A01 T01901124  RH  011%=      5-min Rain = 0
KAM1 091719Z 01018KT 19/M13 A2986 RMK A01 T01901125  RH  011%=      5-min Rain = 0
KAM1 091720Z 00018KT 19/M13 A2986 RMK A01 T01911128  RH  010%=      5-min Rain = 0
KAM1 091721Z 01017KT 19/M13 A2986 RMK A01 T01901129  RH  010%=      5-min Rain = 0
KAM1 091722Z 00015KT 19/M13 A2985 RMK A01 T01891127  RH  011%=      5-min Rain = 0
KAM1 091723Z 01015KT 19/M12 A2985 RMK A01 T01931122  RH  011%=      5-min Rain = 0
KAM1 091724Z 02015G21KT 20/M12 A2985 RMK A01 T01961124  RH  010%=      5-min Rain = 0
KAM1 091725Z 01018KT 20/M12 A2985 RMK A01 T01981123  RH  010%=      5-min Rain = 0
KAM1 091726Z 00018KT 20/M12 A2985 RMK A01 T01981124  RH  010%=      5-min Rain = 0
KAM1 091727Z 36015KT 20/M13 A2985 RMK A01 T01971125  RH  010%=      5-min Rain = 0
KAM1 091728Z 36017G22KT 20/M12 A2985 RMK A01 T01971123  RH  010%=      5-min Rain = 0
KAM1 091729Z 36016KT 20/M12 A2985 RMK A01 T01971123  RH  010%=      5-min Rain = 0
KAM1 091730Z 35017KT 20/M12 A2985 RMK A01 T01971123  RH  010%=      5-min Rain = 0
KAM1 091731Z 35015KT 20/M13 A2985 RMK A01 T01981126  RH  010%=      5-min Rain = 0
KAM1 091732Z 36016KT 20/M13 A2985 RMK A01 T01981126  RH  010%=      5-min Rain = 0
KAM1 091733Z 35017KT 20/M13 A2985 RMK A01 T01981126  RH  010%=      5-min Rain = 0
KAM1 091734Z 35014KT 20/M13 A2985 RMK A01 T01971125  RH  010%=      5-min Rain = 0
KAM1 091735Z 00016KT 20/M12 A2985 RMK A01 T01991122  RH  010%=      5-min Rain = 0
KAM1 091736Z 34018KT 20/M12 A2985 RMK A01 T01991123  RH  010%=      5-min Rain = 0
KAM1 091737Z 35017KT 20/M13 A2985 RMK A01 T02001125  RH  010%=      5-min Rain = 0
KAM1 091738Z 35018KT 20/M13 A2985 RMK A01 T02001125  RH  010%=      5-min Rain = 0
KAM1 091739Z 35018KT 20/M13 A2985 RMK A01 T01981126  RH  010%=      5-min Rain = 0
KAM1 091740Z 35018KT 20/M13 A2985 RMK A01 T01971126  RH  010%=      5-min Rain = 0
KAM1 091741Z 35019KT 20/M13 A2985 RMK A01 T01981127  RH  010%=      5-min Rain = 0
KAM1 091742Z 35018KT 20/M13 A2985 RMK A01 T01981128  RH  010%=      5-min Rain = 0
KAM1 091743Z 36014G19KT 20/M13 A2985 RMK A01 T01991127  RH  010%=      5-min Rain = 0
KAM1 091744Z 00016G21KT 20/M12 A2985 RMK A01 T02021122  RH  010%=      5-min Rain = 0
KAM1 091745Z 00018KT 20/M12 A2985 RMK A01 T02041124  RH  010%=      5-min Rain = 0
KAM1 091746Z 36016KT 20/M13 A2985 RMK A01 T02011126  RH  010%=      5-min Rain = 0
KAM1 091747Z 35017KT 20/M12 A2985 RMK A01 T02001124  RH  010%=      5-min Rain = 0
KAM1 091748Z 35017KT 20/M13 A2985 RMK A01 T02011125  RH  010%=      5-min Rain = 0
KAM1 091749Z 35016G21KT 20/M13 A2985 RMK A01 T02001125  RH  010%=      5-min Rain = 0
KAM1 091750Z 35017KT 20/M12 A2985 RMK A01 T02011124  RH  010%=      5-min Rain = 0
KAM1 091751Z 35017KT 20/M13 A2985 RMK A01 T02021125  RH  010%=      5-min Rain = 0
KAM1 091752Z 35018KT 20/M13 A2985 RMK A01 T02021125  RH  010%=      5-min Rain = 0
KAM1 091753Z 36017KT 20/M13 A2985 RMK A01 T02011125  RH  010%=      5-min Rain = 0
KAM1 091754Z 01017KT 20/M13 A2985 RMK A01 T02001126  RH  010%=      5-min Rain = 0
KAM1 091755Z 01015KT 20/M13 A2985 RMK A01 T01991128  RH  010%=      5-min Rain = 0
KAM1 091756Z 00014KT 20/M13 A2985 RMK A01 T01991126  RH  010%=      5-min Rain = 0
KAM1 091757Z 35017KT 20/M12 A2985 RMK A01 T02021121  RH  010%=      5-min Rain = 0
KAM1 091758Z 35016KT 20/M12 A2985 RMK A01 T02031124  RH  010%=      5-min Rain = 0
KAM1 091759Z 35016KT 20/M13 A2985 RMK A01 T02011125  RH  010%=      5-min Rain = 0
KAM1 091800Z 36016KT 20/M13 A2985 RMK A01 T02011125  RH  010%=      5-min Rain = 0
KAM1 091801Z 35014KT 20/M12 A2985 RMK A01 T02001124  RH  010%=      5-min Rain = 0
KAM1 091802Z 36014KT 20/M12 A2985 RMK A01 T02031120  RH  010%=      5-min Rain = 0
KAM1 091803Z 00016KT 20/M12 A2985 RMK A01 T02041120  RH  010%=      5-min Rain = 0
KAM1 091804Z 35017KT 21/M12 A2985 RMK A01 T02061120  RH  010%=      5-min Rain = 0
KAM1 091805Z 35016KT 21/M12 A2985 RMK A01 T02061124  RH  010%=      5-min Rain = 0
KAM1 091806Z 35017KT 21/M12 A2985 RMK A01 T02051123  RH  010%=      5-min Rain = 0
KAM1 091807Z 36017G22KT 21/M12 A2985 RMK A01 T02071124  RH  010%=      5-min Rain = 0
KAM1 091808Z 00017KT 21/M12 A2985 RMK A01 T02071124  RH  010%=      5-min Rain = 0
KAM1 091809Z 00017KT 21/M12 A2985 RMK A01 T02091124  RH  010%=      5-min Rain = 0
KAM1 091810Z 36014KT 21/M13 A2985 RMK A01 T02081125  RH  010%=      5-min Rain = 0
KAM1 091811Z 00018KT 21/M12 A2985 RMK A01 T02081123  RH  010%=      5-min Rain = 0
KAM1 091812Z 01014KT 21/M13 A2985 RMK A01 T02091125  RH  009%=      5-min Rain = 0
KAM1 091813Z 00014G19KT 21/M12 A2985 RMK A01 T02091122  RH  010%=      5-min Rain = 0
KAM1 091814Z 00013KT 21/M12 A2985 RMK A01 T02101123  RH  010%=      5-min Rain = 0
KAM1 091815Z 34015KT 21/M12 A2985 RMK A01 T02091123  RH  010%=      5-min Rain = 0
KAM1 091816Z 35013KT 21/M12 A2984 RMK A01 T02091123  RH  010%=      5-min Rain = 0
KAM1 091817Z 35016KT 21/M12 A2985 RMK A01 T02101121  RH  010%=      5-min Rain = 0
KAM1 091818Z 01014G19KT 21/M12 A2985 RMK A01 T02111121  RH  010%=      5-min Rain = 0
KAM1 091819Z 36016KT 21/M12 A2984 RMK A01 T02111121  RH  010%=      5-min Rain = 0
KAM1 091820Z 36017KT 21/M12 A2984 RMK A01 T02111123  RH  010%=      5-min Rain = 0
KAM1 091821Z 35016G22KT 21/M13 A2984 RMK A01 T02101125  RH  009%=      5-min Rain = 0
KAM1 091822Z 36017KT 21/M13 A2984 RMK A01 T02101125  RH  009%=      5-min Rain = 0
KAM1 091823Z 00017KT 21/M13 A2984 RMK A01 T02091127  RH  009%=      5-min Rain = 0
KAM1 091824Z 01017KT 21/M13 A2985 RMK A01 T02071128  RH  009%=      5-min Rain = 0
KAM1 091825Z 00015KT 21/M13 A2984 RMK A01 T02071127  RH  009%=      5-min Rain = 0
KAM1 091826Z 00013KT 21/M13 A2984 RMK A01 T02071127  RH  009%=      5-min Rain = 0
KAM1 091827Z 36013KT 21/M12 A2984 RMK A01 T02081121  RH  010%=      5-min Rain = 0
KAM1 091828Z 02011KT 21/M12 A2984 RMK A01 T02131119  RH  010%=      5-min Rain = 0
KAM1 091829Z 01013G18KT 22/M12 A2984 RMK A01 T02171117  RH  010%=      5-min Rain = 0
KAM1 091830Z 01018KT 22/M12 A2984 RMK A01 T02181121  RH  009%=      5-min Rain = 0
KAM1 091831Z 01018KT 22/M13 A2985 RMK A01 T02161126  RH  009%=      5-min Rain = 0
KAM1 091832Z 00014KT 21/M13 A2984 RMK A01 T02111130  RH  009%=      5-min Rain = 0
KAM1 091833Z 00013KT 21/M13 A2984 RMK A01 T02101127  RH  009%=      5-min Rain = 0
KAM1 091834Z 02015KT 21/M12 A2984 RMK A01 T02111124  RH  009%=      5-min Rain = 0
KAM1 091835Z 03015KT 21/M12 A2984 RMK A01 T02121124  RH  009%=      5-min Rain = 0
KAM1 091836Z 01013G19KT 21/M12 A2984 RMK A01 T02141121  RH  010%=      5-min Rain = 0
KAM1 091837Z 01015KT 22/M12 A2984 RMK A01 T02161122  RH  009%=      5-min Rain = 0
KAM1 091838Z 01017KT 22/M13 A2984 RMK A01 T02151126  RH  009%=      5-min Rain = 0
KAM1 091839Z 02015KT 21/M13 A2984 RMK A01 T02131125  RH  009%=      5-min Rain = 0
KAM1 091840Z 00017KT 21/M13 A2984 RMK A01 T02131125  RH  009%=      5-min Rain = 0
KAM1 091841Z 00015KT 21/M13 A2984 RMK A01 T02111127  RH  009%=      5-min Rain = 0
KAM1 091842Z 35015KT 21/M13 A2984 RMK A01 T02101127  RH  009%=      5-min Rain = 0
KAM1 091843Z 01015G20KT 21/M12 A2984 RMK A01 T02101124  RH  009%=      5-min Rain = 0
KAM1 091844Z 02014KT 21/M12 A2984 RMK A01 T02121121  RH  010%=      5-min Rain = 0
KAM1 091845Z 02017KT 21/M12 A2984 RMK A01 T02131120  RH  010%=      5-min Rain = 0
KAM1 091846Z 01013KT 21/M12 A2984 RMK A01 T02121122  RH  010%=      5-min Rain = 0
KAM1 091847Z 02013KT 21/M12 A2984 RMK A01 T02131120  RH  010%=      5-min Rain = 0
KAM1 091848Z 01012KT 21/M12 A2984 RMK A01 T02111123  RH  010%=      5-min Rain = 0
KAM1 091849Z 36012KT 21/M12 A2984 RMK A01 T02101123  RH  010%=      5-min Rain = 0
KAM1 091850Z 01010KT 21/M12 A2984 RMK A01 T02081124  RH  010%=      5-min Rain = 0
KAM1 091851Z 01010KT 21/M12 A2984 RMK A01 T02081122  RH  010%=      5-min Rain = 0
KAM1 091852Z 36010KT 21/M12 A2983 RMK A01 T02091119  RH  010%=      5-min Rain = 0
KAM1 091853Z 01011KT 21/M12 A2983 RMK A01 T02121117  RH  010%=      5-min Rain = 0
KAM1 091854Z 01007KT 21/M12 A2983 RMK A01 T02141120  RH  010%=      5-min Rain = 0
KAM1 091855Z 01011G18KT 22/M12 A2983 RMK A01 T02171120  RH  009%=      5-min Rain = 0
KAM1 091856Z 36015KT 22/M12 A2983 RMK A01 T02201120  RH  009%=      5-min Rain = 0
KAM1 091857Z 01014KT 22/M12 A2983 RMK A01 T02201122  RH  009%=      5-min Rain = 0
KAM1 091858Z 02016KT 22/M13 A2983 RMK A01 T02191129  RH  009%=      5-min Rain = 0
KAM1 091859Z 01016KT 22/M13 A2984 RMK A01 T02181131  RH  009%=      5-min Rain = 0
KAM1 091900Z 01014G20KT 22/M13 A2984 RMK A01 T02181134  RH  008%=      5-min Rain = 0
KAM1 091901Z 02013G18KT 22/M13 A2983 RMK A01 T02161134  RH  008%=      5-min Rain = 0
KAM1 091902Z 02017KT 22/M13 A2983 RMK A01 T02181128  RH  009%=      5-min Rain = 0
KAM1 091903Z 01015KT 22/M13 A2983 RMK A01 T02211131  RH  008%=      5-min Rain = 0
KAM1 091904Z 02012KT 22/M13 A2983 RMK A01 T02191133  RH  008%=      5-min Rain = 0
KAM1 091905Z 01015KT 22/M13 A2983 RMK A01 T02221131  RH  008%=      5-min Rain = 0
KAM1 091906Z 02016KT 22/M13 A2983 RMK A01 T02231133  RH  008%=      5-min Rain = 0
KAM1 091907Z 02018KT 22/M13 A2983 RMK A01 T02221133  RH  008%=      5-min Rain = 0
KAM1 091908Z 02016KT 22/M13 A2983 RMK A01 T02201133  RH  008%=      5-min Rain = 0
KAM1 091909Z 03014KT 22/M13 A2983 RMK A01 T02181133  RH  008%=      5-min Rain = 0
KAM1 091910Z 02017G22KT 22/M13 A2983 RMK A01 T02171133  RH  008%=      5-min Rain = 0
KAM1 091911Z 01016KT 22/M13 A2983 RMK A01 T02181133  RH  008%=      5-min Rain = 0
KAM1 091912Z 02014KT 22/M13 A2983 RMK A01 T02191132  RH  008%=      5-min Rain = 0
KAM1 091913Z 00013G20KT 22/M13 A2983 RMK A01 T02211130  RH  008%=      5-min Rain = 0
KAM1 091914Z 01016KT 22/M13 A2983 RMK A01 T02231130  RH  008%=      5-min Rain = 0
KAM1 091915Z 02015KT 22/M13 A2983 RMK A01 T02221132  RH  008%=      5-min Rain = 0
KAM1 091916Z 02015KT 22/M13 A2983 RMK A01 T02211134  RH  008%=      5-min Rain = 0
KAM1 091917Z 01014G19KT 22/M13 A2983 RMK A01 T02221129  RH  008%=      5-min Rain = 0
KAM1 091918Z 02014KT 23/M13 A2983 RMK A01 T02271127  RH  008%=      5-min Rain = 0
KAM1 091919Z 01013KT 23/M13 A2983 RMK A01 T02261129  RH  008%=      5-min Rain = 0
KAM1 091920Z 01014G19KT 23/M13 A2983 RMK A01 T02281126  RH  008%=      5-min Rain = 0
KAM1 091921Z 02014KT 23/M13 A2983 RMK A01 T02301129  RH  008%=      5-min Rain = 0
KAM1 091922Z 02014G19KT 23/M13 A2983 RMK A01 T02291128  RH  008%=      5-min Rain = 0
KAM1 091923Z 02016KT 23/M13 A2983 RMK A01 T02291130  RH  008%=      5-min Rain = 0
KAM1 091924Z 03016KT 23/M13 A2983 RMK A01 T02251134  RH  008%=      5-min Rain = 0
KAM1 091925Z 03018KT 23/M13 A2983 RMK A01 T02251130  RH  008%=      5-min Rain = 0
KAM1 091926Z 03018KT 23/M13 A2983 RMK A01 T02251133  RH  008%=      5-min Rain = 0
KAM1 091927Z 03013KT 22/M13 A2983 RMK A01 T02221134  RH  008%=      5-min Rain = 0
KAM1 091928Z 02012G17KT 22/M13 A2983 RMK A01 T02231131  RH  008%=      5-min Rain = 0
KAM1 091929Z 03014KT 22/M13 A2982 RMK A01 T02231133  RH  008%=      5-min Rain = 0
KAM1 091930Z 03017KT 22/M13 A2983 RMK A01 T02231132  RH  008%=      5-min Rain = 0
KAM1 091931Z 01015G20KT 22/M13 A2983 RMK A01 T02231133  RH  008%=      5-min Rain = 0
KAM1 091932Z 01016G21KT 22/M13 A2983 RMK A01 T02231133  RH  008%=      5-min Rain = 0
KAM1 091933Z 02012G18KT 22/M13 A2982 RMK A01 T02241134  RH  008%=      5-min Rain = 0
KAM1 091934Z 01017KT 22/M13 A2983 RMK A01 T02231133  RH  008%=      5-min Rain = 0
KAM1 091935Z 01017KT 22/M13 A2983 RMK A01 T02231134  RH  008%=      5-min Rain = 0
KAM1 091936Z 00013KT 22/M14 A2983 RMK A01 T02201137  RH  008%=      5-min Rain = 0
KAM1 091937Z 00012G17KT 22/M13 A2982 RMK A01 T02191132  RH  008%=      5-min Rain = 0
KAM1 091938Z 01016G22KT 22/M13 A2982 RMK A01 T02241129  RH  008%=      5-min Rain = 0
KAM1 091939Z 01018KT 23/M13 A2983 RMK A01 T02271129  RH  008%=      5-min Rain = 0
KAM1 091940Z 02016KT 23/M13 A2983 RMK A01 T02251134  RH  008%=      5-min Rain = 0
KAM1 091941Z 03013KT 22/M13 A2983 RMK A01 T02241133  RH  008%=      5-min Rain = 0
KAM1 091942Z 02014KT 22/M13 A2982 RMK A01 T02231133  RH  008%=      5-min Rain = 0
KAM1 091943Z 01016KT 22/M13 A2982 RMK A01 T02231133  RH  008%=      5-min Rain = 0
KAM1 091944Z 01014G19KT 22/M13 A2982 RMK A01 T02231134  RH  008%=      5-min Rain = 0
KAM1 091945Z 36015KT 22/M13 A2982 RMK A01 T02231132  RH  008%=      5-min Rain = 0
KAM1 091946Z 02010G15KT 23/M13 A2982 RMK A01 T02251131  RH  008%=      5-min Rain = 0
KAM1 091947Z 02014KT 23/M13 A2982 RMK A01 T02271129  RH  008%=      5-min Rain = 0
KAM1 091948Z 01012G17KT 23/M13 A2982 RMK A01 T02261130  RH  008%=      5-min Rain = 0
KAM1 091949Z 01013G20KT 23/M13 A2983 RMK A01 T02271131  RH  008%=      5-min Rain = 0
KAM1 091950Z 01017KT 22/M14 A2983 RMK A01 T02241135  RH  008%=      5-min Rain = 0
KAM1 091951Z 02016KT 22/M14 A2983 RMK A01 T02211136  RH  008%=      5-min Rain = 0
KAM1 091952Z 03012KT 22/M14 A2983 RMK A01 T02201136  RH  008%=      5-min Rain = 0
KAM1 091953Z 03011KT 22/M14 A2983 RMK A01 T02181135  RH  008%=      5-min Rain = 0
KAM1 091954Z 01017G22KT 22/M13 A2983 RMK A01 T02191132  RH  008%=      5-min Rain = 0
KAM1 091955Z 01018KT 22/M13 A2983 RMK A01 T02191134  RH  008%=      5-min Rain = 0
KAM1 091956Z 01016KT 22/M14 A2983 RMK A01 T02171135  RH  008%=      5-min Rain = 0
KAM1 091957Z 01012KT 22/M13 A2983 RMK A01 T02161134  RH  008%=      5-min Rain = 0
KAM1 091958Z 03013G19KT 22/M13 A2983 RMK A01 T02171130  RH  009%=      5-min Rain = 0
KAM1 091959Z 04014KT 22/M13 A2983 RMK A01 T02201129  RH  009%=      5-min Rain = 0
KAM1 092000Z 01015KT 22/M13 A2983 RMK A01 T02201130  RH  009%=      5-min Rain = 0
KAM1 092001Z 01015KT 22/M13 A2983 RMK A01 T02221130  RH  008%=      5-min Rain = 0
KAM1 092002Z 36016KT 22/M13 A2982 RMK A01 T02231130  RH  008%=      5-min Rain = 0
KAM1 092003Z 36016KT 22/M13 A2982 RMK A01 T02211134  RH  008%=      5-min Rain = 0
KAM1 092004Z 01017KT 22/M13 A2983 RMK A01 T02211134  RH  008%=      5-min Rain = 0
KAM1 092005Z 01015KT 22/M13 A2983 RMK A01 T02231134  RH  008%=      5-min Rain = 0
KAM1 092006Z 36013KT 22/M13 A2983 RMK A01 T02211132  RH  008%=      5-min Rain = 0
KAM1 092007Z 02013KT 22/M13 A2982 RMK A01 T02221132  RH  008%=      5-min Rain = 0
KAM1 092008Z 01017KT 22/M13 A2982 RMK A01 T02231131  RH  008%=      5-min Rain = 0
KAM1 092009Z 01017KT 23/M13 A2982 RMK A01 T02251130  RH  008%=      5-min Rain = 0
KAM1 092010Z 02017KT 23/M13 A2983 RMK A01 T02251130  RH  008%=      5-min Rain = 0
KAM1 092011Z 03013KT 22/M13 A2982 RMK A01 T02241131  RH  008%=      5-min Rain = 0
KAM1 092012Z 02012KT 22/M13 A2982 RMK A01 T02221131  RH  008%=      5-min Rain = 0
KAM1 092013Z 02017KT 22/M13 A2983 RMK A01 T02221129  RH  008%=      5-min Rain = 0
KAM1 092014Z 02017G22KT 22/M13 A2982 RMK A01 T02221131  RH  008%=      5-min Rain = 0
KAM1 092015Z 02016G21KT 22/M13 A2983 RMK A01 T02211130  RH  008%=      5-min Rain = 0
KAM1 092016Z 02014KT 22/M13 A2982 RMK A01 T02201131  RH  008%=      5-min Rain = 0
KAM1 092017Z 01010KT 22/M13 A2982 RMK A01 T02171133  RH  009%=      5-min Rain = 0
KAM1 092018Z 02016G23KT 22/M13 A2982 RMK A01 T02161131  RH  009%=      5-min Rain = 0
KAM1 092019Z 03019KT 22/M13 A2982 RMK A01 T02181130  RH  009%=      5-min Rain = 0
KAM1 092020Z 03018KT 22/M13 A2982 RMK A01 T02171131  RH  009%=      5-min Rain = 0
KAM1 092021Z 02015KT 22/M13 A2982 RMK A01 T02151133  RH  009%=      5-min Rain = 0
KAM1 092022Z 02015KT 21/M13 A2982 RMK A01 T02131133  RH  009%=      5-min Rain = 0
KAM1 092023Z 01015G20KT 21/M13 A2982 RMK A01 T02121132  RH  009%=      5-min Rain = 0
KAM1 092024Z 03014KT 21/M13 A2982 RMK A01 T02131130  RH  009%=      5-min Rain = 0
KAM1 092025Z 02012KT 21/M13 A2982 RMK A01 T02141130  RH  009%=      5-min Rain = 0
KAM1 092026Z 00013G18KT 22/M13 A2982 RMK A01 T02161127  RH  009%=      5-min Rain = 0
KAM1 092027Z 01012KT 22/M13 A2982 RMK A01 T02181127  RH  009%=      5-min Rain = 0
KAM1 092028Z 02017KT 22/M13 A2982 RMK A01 T02191128  RH  009%=      5-min Rain = 0
KAM1 092029Z 02017KT 22/M13 A2982 RMK A01 T02191128  RH  009%=      5-min Rain = 0
KAM1 092030Z 03017KT 22/M13 A2983 RMK A01 T02171129  RH  009%=      5-min Rain = 0
KAM1 092031Z 02017KT 22/M13 A2983 RMK A01 T02151129  RH  009%=      5-min Rain = 0
KAM1 092032Z 01016KT 22/M13 A2983 RMK A01 T02161129  RH  009%=      5-min Rain = 0
KAM1 092033Z 02015KT 22/M13 A2983 RMK A01 T02151130  RH  009%=      5-min Rain = 0
KAM1 092034Z 02017KT 22/M13 A2983 RMK A01 T02161127  RH  009%=      5-min Rain = 0
KAM1 092035Z 01017KT 22/M13 A2983 RMK A01 T02181128  RH  009%=      5-min Rain = 0
KAM1 092036Z 01016KT 22/M13 A2983 RMK A01 T02181130  RH  009%=      5-min Rain = 0
KAM1 092037Z 01011KT 22/M13 A2983 RMK A01 T02161131  RH  009%=      5-min Rain = 0
KAM1 092038Z 04013KT 22/M13 A2983 RMK A01 T02161128  RH  009%=      5-min Rain = 0
KAM1 092039Z 04014G20KT 22/M13 A2982 RMK A01 T02161130  RH  009%=      5-min Rain = 0
KAM1 092040Z 02018KT 22/M13 A2982 RMK A01 T02161129  RH  009%=      5-min Rain = 0
KAM1 092041Z 02016KT 22/M13 A2982 RMK A01 T02161128  RH  009%=      5-min Rain = 0
KAM1 092042Z 02014KT 22/M13 A2982 RMK A01 T02161130  RH  009%=      5-min Rain = 0
KAM1 092043Z 01014KT 22/M13 A2982 RMK A01 T02151131  RH  009%=      5-min Rain = 0
KAM1 092044Z 01013KT 22/M13 A2982 RMK A01 T02151130  RH  009%=      5-min Rain = 0
KAM1 092045Z 02010KT 21/M13 A2982 RMK A01 T02131132  RH  009%=      5-min Rain = 0
KAM1 092046Z 01011G16KT 21/M13 A2982 RMK A01 T02131130  RH  009%=      5-min Rain = 0
KAM1 092047Z 01014KT 22/M13 A2982 RMK A01 T02151129  RH  009%=      5-min Rain = 0
KAM1 092048Z 02016KT 22/M13 A2982 RMK A01 T02161131  RH  009%=      5-min Rain = 0
KAM1 092049Z 02013KT 22/M13 A2982 RMK A01 T02151128  RH  009%=      5-min Rain = 0
KAM1 092050Z 03015KT 22/M13 A2982 RMK A01 T02171125  RH  009%=      5-min Rain = 0
KAM1 092051Z 03015KT 22/M13 A2982 RMK A01 T02181128  RH  009%=      5-min Rain = 0
KAM1 092052Z 02011KT 22/M13 A2982 RMK A01 T02151131  RH  009%=      5-min Rain = 0
KAM1 092053Z 04010KT 21/M13 A2982 RMK A01 T02141128  RH  009%=      5-min Rain = 0
KAM1 092054Z 01008KT 22/M13 A2982 RMK A01 T02171128  RH  009%=      5-min Rain = 0
KAM1 092055Z 00012KT 22/M13 A2982 RMK A01 T02191127  RH  009%=      5-min Rain = 0
KAM1 092056Z 01014KT 22/M13 A2983 RMK A01 T02201126  RH  009%=      5-min Rain = 0
KAM1 092057Z 36014KT 22/M13 A2982 RMK A01 T02221128  RH  009%=      5-min Rain = 0
KAM1 092058Z 00012KT 22/M13 A2983 RMK A01 T02211131  RH  008%=      5-min Rain = 0
KAM1 092059Z 00017KT 22/M13 A2983 RMK A01 T02201129  RH  009%=      5-min Rain = 0
KAM1 092100Z 02014G19KT 22/M13 A2983 RMK A01 T02201131  RH  008%=      5-min Rain = 0
KAM1 092101Z 03010KT 22/M13 A2983 RMK A01 T02211131  RH  008%=      5-min Rain = 0
KAM1 092102Z 02009KT 22/M13 A2983 RMK A01 T02221133  RH  008%=      5-min Rain = 0
KAM1 092103Z 02012KT 22/M13 A2983 RMK A01 T02231130  RH  008%=      5-min Rain = 0
KAM1 092104Z 03013KT 22/M13 A2983 RMK A01 T02241131  RH  008%=      5-min Rain = 0
KAM1 092105Z 04013KT 22/M14 A2983 RMK A01 T02191135  RH  008%=      5-min Rain = 0
KAM1 092106Z 05011KT 22/M13 A2983 RMK A01 T02161134  RH  009%=      5-min Rain = 0
KAM1 092107Z 04009KT 22/M13 A2983 RMK A01 T02151132  RH  009%=      5-min Rain = 0
KAM1 092108Z 04012KT 22/M13 A2982 RMK A01 T02161131  RH  009%=      5-min Rain = 0
KAM1 092109Z 01015KT 22/M13 A2982 RMK A01 T02171132  RH  009%=      5-min Rain = 0
KAM1 092110Z 00012G17KT 22/M14 A2982 RMK A01 T02181135  RH  008%=      5-min Rain = 0
KAM1 092111Z 01011KT 22/M13 A2982 RMK A01 T02181133  RH  008%=      5-min Rain = 0
KAM1 092112Z 01010KT 22/M13 A2982 RMK A01 T02191132  RH  008%=      5-min Rain = 0
KAM1 092113Z 01010KT 22/M13 A2982 RMK A01 T02181133  RH  008%=      5-min Rain = 0
KAM1 092114Z 03011KT 22/M13 A2982 RMK A01 T02191133  RH  008%=      5-min Rain = 0
KAM1 092115Z 02011G17KT 22/M13 A2982 RMK A01 T02171134  RH  008%=      5-min Rain = 0
KAM1 092116Z 02014G19KT 22/M13 A2982 RMK A01 T02181132  RH  009%=      5-min Rain = 0
KAM1 092117Z 04011KT 22/M13 A2982 RMK A01 T02201129  RH  009%=      5-min Rain = 0
KAM1 092118Z 04011KT 22/M13 A2982 RMK A01 T02241126  RH  009%=      5-min Rain = 0
KAM1 092119Z 02012KT 22/M13 A2982 RMK A01 T02241132  RH  008%=      5-min Rain = 0
KAM1 092120Z 02014KT 22/M13 A2982 RMK A01 T02211133  RH  008%=      5-min Rain = 0
KAM1 092121Z 03012KT 22/M13 A2982 RMK A01 T02221133  RH  008%=      5-min Rain = 0
KAM1 092122Z 01016KT 22/M13 A2982 RMK A01 T02221134  RH  008%=      5-min Rain = 0
KAM1 092123Z 01012KT 22/M14 A2982 RMK A01 T02201137  RH  008%=      5-min Rain = 0
KAM1 092124Z 00012KT 22/M14 A2982 RMK A01 T02181137  RH  008%=      5-min Rain = 0
KAM1 092125Z 36011KT 22/M14 A2981 RMK A01 T02151139  RH  008%=      5-min Rain = 0
KAM1 092126Z 03008KT 22/M13 A2982 RMK A01 T02161133  RH  009%=      5-min Rain = 0
KAM1 092127Z 04007KT 22/M13 A2982 RMK A01 T02201130  RH  009%=      5-min Rain = 0
KAM1 092128Z 03011KT 22/M13 A2982 RMK A01 T02221131  RH  008%=      5-min Rain = 0
KAM1 092129Z 02008KT 22/M13 A2982 RMK A01 T02191133  RH  008%=      5-min Rain = 0
KAM1 092130Z 02009KT 22/M13 A2982 RMK A01 T02181132  RH  009%=      5-min Rain = 0
KAM1 092131Z 02014KT 22/M13 A2982 RMK A01 T02211129  RH  009%=      5-min Rain = 0
KAM1 092132Z 02013KT 22/M13 A2982 RMK A01 T02211134  RH  008%=      5-min Rain = 0
KAM1 092133Z 01010KT 22/M14 A2982 RMK A01 T02181137  RH  008%=      5-min Rain = 0
KAM1 092134Z 02009KT 22/M14 A2982 RMK A01 T02151138  RH  008%=      5-min Rain = 0
KAM1 092135Z 03010KT 22/M14 A2982 RMK A01 T02151136  RH  008%=      5-min Rain = 0
KAM1 092136Z 03009KT 21/M14 A2982 RMK A01 T02141137  RH  008%=      5-min Rain = 0
KAM1 092137Z 03009KT 21/M14 A2982 RMK A01 T02131135  RH  009%=      5-min Rain = 0
KAM1 092138Z 03009KT 21/M14 A2982 RMK A01 T02121136  RH  009%=      5-min Rain = 0
KAM1 092139Z 04010KT 21/M13 A2982 RMK A01 T02121134  RH  009%=      5-min Rain = 0
KAM1 092140Z 03007KT 21/M13 A2982 RMK A01 T02141130  RH  009%=      5-min Rain = 0
KAM1 092141Z 04008KT 22/M13 A2982 RMK A01 T02151132  RH  009%=      5-min Rain = 0
KAM1 092142Z 02011KT 22/M13 A2982 RMK A01 T02171131  RH  009%=      5-min Rain = 0
KAM1 092143Z 02010KT 22/M14 A2982 RMK A01 T02181136  RH  008%=      5-min Rain = 0
KAM1 092144Z 02009KT 22/M14 A2982 RMK A01 T02151140  RH  008%=      5-min Rain = 0
KAM1 092145Z 03009KT 21/M14 A2982 RMK A01 T02141138  RH  008%=      5-min Rain = 0
KAM1 092146Z 02011KT 22/M14 A2982 RMK A01 T02151135  RH  008%=      5-min Rain = 0
KAM1 092147Z 03009KT 21/M13 A2982 RMK A01 T02131134  RH  009%=      5-min Rain = 0
KAM1 092148Z 01006KT 21/M13 A2982 RMK A01 T02121133  RH  009%=      5-min Rain = 0
KAM1 092149Z 01007KT 21/M13 A2982 RMK A01 T02111133  RH  009%=      5-min Rain = 0
KAM1 092150Z 36008KT 21/M13 A2982 RMK A01 T02121133  RH  009%=      5-min Rain = 0
KAM1 092151Z 01008KT 21/M13 A2982 RMK A01 T02121132  RH  009%=      5-min Rain = 0
KAM1 092152Z 03011KT 21/M13 A2982 RMK A01 T02121132  RH  009%=      5-min Rain = 0
KAM1 092153Z 04010KT 21/M13 A2982 RMK A01 T02121132  RH  009%=      5-min Rain = 0
KAM1 092154Z 05009KT 21/M13 A2982 RMK A01 T02121134  RH  009%=      5-min Rain = 0
KAM1 092155Z 05010KT 21/M13 A2982 RMK A01 T02111133  RH  009%=      5-min Rain = 0
KAM1 092156Z 05010KT 21/M13 A2982 RMK A01 T02121132  RH  009%=      5-min Rain = 0
KAM1 092157Z 05012KT 22/M13 A2982 RMK A01 T02151130  RH  009%=      5-min Rain = 0
KAM1 092158Z 05013KT 22/M13 A2982 RMK A01 T02161131  RH  009%=      5-min Rain = 0
KAM1 092159Z 03013KT 22/M13 A2982 RMK A01 T02161133  RH  009%=      5-min Rain = 0
KAM1 092200Z 03011KT 22/M13 A2982 RMK A01 T02161134  RH  008%=      5-min Rain = 0
KAM1 092201Z 03013KT 22/M13 A2982 RMK A01 T02161133  RH  009%=      5-min Rain = 0
KAM1 092202Z 03011KT 22/M13 A2982 RMK A01 T02171134  RH  008%=      5-min Rain = 0
KAM1 092203Z 01013KT 22/M14 A2982 RMK A01 T02161137  RH  008%=      5-min Rain = 0
KAM1 092204Z 02012KT 22/M14 A2982 RMK A01 T02151139  RH  008%=      5-min Rain = 0
KAM1 092205Z 02010KT 21/M14 A2982 RMK A01 T02141139  RH  008%=      5-min Rain = 0
KAM1 092206Z 01011KT 21/M14 A2982 RMK A01 T02131137  RH  008%=      5-min Rain = 0
KAM1 092207Z 02010KT 21/M14 A2982 RMK A01 T02141135  RH  008%=      5-min Rain = 0
KAM1 092208Z 04007KT 21/M14 A2982 RMK A01 T02141136  RH  008%=      5-min Rain = 0
KAM1 092209Z 03009KT 21/M13 A2982 RMK A01 T02141134  RH  009%=      5-min Rain = 0
KAM1 092210Z 04010KT 22/M13 A2982 RMK A01 T02171133  RH  009%=      5-min Rain = 0
KAM1 092211Z 05010KT 22/M14 A2982 RMK A01 T02171136  RH  008%=      5-min Rain = 0
KAM1 092212Z 04010KT 22/M14 A2982 RMK A01 T02151136  RH  008%=      5-min Rain = 0
KAM1 092213Z 02013KT 21/M14 A2982 RMK A01 T02141135  RH  008%=      5-min Rain = 0
KAM1 092214Z 01011KT 21/M14 A2982 RMK A01 T02131135  RH  009%=      5-min Rain = 0
KAM1 092215Z 01007KT 21/M14 A2982 RMK A01 T02111137  RH  009%=      5-min Rain = 0
KAM1 092216Z 02005KT 21/M14 A2982 RMK A01 T02091137  RH  009%=      5-min Rain = 0
KAM1 092217Z 02007KT 21/M13 A2982 RMK A01 T02101133  RH  009%=      5-min Rain = 0
KAM1 092218Z 04008KT 21/M13 A2982 RMK A01 T02121132  RH  009%=      5-min Rain = 0
KAM1 092219Z 04010KT 21/M13 A2982 RMK A01 T02121130  RH  009%=      5-min Rain = 0
KAM1 092220Z 04010KT 21/M13 A2982 RMK A01 T02121130  RH  009%=      5-min Rain = 0
KAM1 092221Z 03010KT 21/M13 A2982 RMK A01 T02111133  RH  009%=      5-min Rain = 0
KAM1 092222Z 04010KT 21/M13 A2982 RMK A01 T02101133  RH  009%=      5-min Rain = 0
KAM1 092223Z 03009KT 21/M13 A2982 RMK A01 T02091134  RH  009%=      5-min Rain = 0
KAM1 092224Z 04009KT 21/M13 A2982 RMK A01 T02091134  RH  009%=      5-min Rain = 0
KAM1 092225Z 03010KT 21/M13 A2982 RMK A01 T02081133  RH  009%=      5-min Rain = 0
KAM1 092226Z 04011KT 21/M13 A2982 RMK A01 T02081132  RH  009%=      5-min Rain = 0
KAM1 092227Z 03008KT 21/M13 A2982 RMK A01 T02091133  RH  009%=      5-min Rain = 0
KAM1 092228Z 04007KT 21/M13 A2982 RMK A01 T02091132  RH  009%=      5-min Rain = 0
KAM1 092229Z 04007KT 21/M13 A2982 RMK A01 T02071134  RH  009%=      5-min Rain = 0
KAM1 092230Z 03005KT 21/M13 A2982 RMK A01 T02071134  RH  009%=      5-min Rain = 0
KAM1 092231Z 07004KT 21/M13 A2982 RMK A01 T02081131  RH  009%=      5-min Rain = 0
KAM1 092232Z 08006KT 21/M13 A2982 RMK A01 T02101131  RH  009%=      5-min Rain = 0
KAM1 092233Z 07007KT 21/M13 A2982 RMK A01 T02101133  RH  009%=      5-min Rain = 0
KAM1 092234Z 05007KT 21/M13 A2982 RMK A01 T02091132  RH  009%=      5-min Rain = 0
KAM1 092235Z 04006KT 21/M13 A2982 RMK A01 T02081134  RH  009%=      5-min Rain = 0
KAM1 092236Z 03007KT 21/M13 A2982 RMK A01 T02071132  RH  009%=      5-min Rain = 0
KAM1 092237Z 03009KT 21/M13 A2982 RMK A01 T02071133  RH  009%=      5-min Rain = 0
KAM1 092238Z 02009KT 21/M13 A2982 RMK A01 T02071134  RH  009%=      5-min Rain = 0
KAM1 092239Z 04008KT 21/M13 A2982 RMK A01 T02071134  RH  009%=      5-min Rain = 0
KAM1 092240Z 02007KT 21/M13 A2982 RMK A01 T02061133  RH  009%=      5-min Rain = 0
KAM1 092241Z 02012KT 21/M13 A2982 RMK A01 T02051132  RH  009%=      5-min Rain = 0
KAM1 092242Z 04010KT 21/M13 A2982 RMK A01 T02061131  RH  009%=      5-min Rain = 0
KAM1 092243Z 05011KT 21/M13 A2982 RMK A01 T02071131  RH  009%=      5-min Rain = 0
KAM1 092244Z 05010KT 21/M13 A2982 RMK A01 T02071133  RH  009%=      5-min Rain = 0
KAM1 092245Z 05008KT 21/M13 A2982 RMK A01 T02071133  RH  009%=      5-min Rain = 0
KAM1 092246Z 04007KT 21/M13 A2982 RMK A01 T02061134  RH  009%=      5-min Rain = 0
KAM1 092247Z 04008KT 21/M14 A2982 RMK A01 T02051135  RH  009%=      5-min Rain = 0
KAM1 092248Z 06007KT 21/M14 A2982 RMK A01 T02051135  RH  009%=      5-min Rain = 0
KAM1 092249Z 05006KT 20/M14 A2982 RMK A01 T02041136  RH  009%=      5-min Rain = 0
KAM1 092250Z 04007KT 20/M13 A2982 RMK A01 T02041133  RH  009%=      5-min Rain = 0
KAM1 092251Z 05007KT 21/M13 A2982 RMK A01 T02061133  RH  009%=      5-min Rain = 0
KAM1 092252Z 04006KT 21/M13 A2982 RMK A01 T02051134  RH  009%=      5-min Rain = 0
KAM1 092253Z 02007KT 21/M13 A2982 RMK A01 T02061134  RH  009%=      5-min Rain = 0
KAM1 092254Z 02008KT 21/M13 A2982 RMK A01 T02071133  RH  009%=      5-min Rain = 0
KAM1 092255Z 02008KT 21/M13 A2982 RMK A01 T02081133  RH  009%=      5-min Rain = 0
KAM1 092256Z 03009KT 21/M13 A2982 RMK A01 T02081134  RH  009%=      5-min Rain = 0
KAM1 092257Z 03010KT 21/M13 A2982 RMK A01 T02091133  RH  009%=      5-min Rain = 0
KAM1 092258Z 05010KT 21/M13 A2982 RMK A01 T02081133  RH  009%=      5-min Rain = 0
KAM1 092259Z 05008KT 21/M13 A2983 RMK A01 T02081133  RH  009%=      5-min Rain = 0
KAM1 092300Z 04009KT 21/M13 A2982 RMK A01 T02081133  RH  009%=      5-min Rain = 0
KAM1 092301Z 04008KT 21/M13 A2982 RMK A01 T02081134  RH  009%=      5-min Rain = 0
KAM1 092302Z 04009KT 21/M14 A2983 RMK A01 T02071135  RH  009%=      5-min Rain = 0
KAM1 092303Z 05008KT 21/M14 A2982 RMK A01 T02071136  RH  009%=      5-min Rain = 0
KAM1 092304Z 06009KT 21/M14 A2982 RMK A01 T02071135  RH  009%=      5-min Rain = 0
KAM1 092305Z 06010KT 21/M14 A2983 RMK A01 T02071135  RH  009%=      5-min Rain = 0
KAM1 092306Z 06008KT 21/M14 A2983 RMK A01 T02071135  RH  009%=      5-min Rain = 0
KAM1 092307Z 05007KT 21/M13 A2983 RMK A01 T02071134  RH  009%=      5-min Rain = 0
KAM1 092308Z 03007KT 21/M13 A2983 RMK A01 T02071134  RH  009%=      5-min Rain = 0
KAM1 092309Z 03008KT 21/M13 A2983 RMK A01 T02091131  RH  009%=      5-min Rain = 0
KAM1 092310Z 03006KT 21/M13 A2983 RMK A01 T02091133  RH  009%=      5-min Rain = 0
KAM1 092311Z 05006KT 21/M13 A2983 RMK A01 T02091133  RH  009%=      5-min Rain = 0
KAM1 092312Z 05007KT 21/M13 A2983 RMK A01 T02081134  RH  009%=      5-min Rain = 0
KAM1 092313Z 06005KT 21/M14 A2983 RMK A01 T02071136  RH  009%=      5-min Rain = 0
KAM1 092314Z 04006KT 21/M14 A2983 RMK A01 T02061136  RH  009%=      5-min Rain = 0
KAM1 092315Z 04006KT 21/M13 A2983 RMK A01 T02061133  RH  009%=      5-min Rain = 0
KAM1 092316Z 02006KT 21/M13 A2983 RMK A01 T02071133  RH  009%=      5-min Rain = 0
KAM1 092317Z 02009KT 21/M13 A2983 RMK A01 T02071133  RH  009%=      5-min Rain = 0
KAM1 092318Z 02010KT 21/M13 A2983 RMK A01 T02071134  RH  009%=      5-min Rain = 0
KAM1 092319Z 03008KT 21/M14 A2983 RMK A01 T02061135  RH  009%=      5-min Rain = 0
KAM1 092320Z 03009KT 20/M14 A2983 RMK A01 T02041135  RH  009%=      5-min Rain = 0
KAM1 092321Z 04008KT 20/M14 A2983 RMK A01 T02041136  RH  009%=      5-min Rain = 0
KAM1 092322Z 03006KT 20/M14 A2982 RMK A01 T02031136  RH  009%=      5-min Rain = 0
KAM1 092323Z 04006KT 20/M14 A2982 RMK A01 T02031136  RH  009%=      5-min Rain = 0
KAM1 092324Z 03008KT 20/M13 A2982 RMK A01 T02041134  RH  009%=      5-min Rain = 0
KAM1 092325Z 04009KT 20/M13 A2982 RMK A01 T02041134  RH  009%=      5-min Rain = 0
KAM1 092326Z 05007KT 20/M14 A2982 RMK A01 T02041136  RH  009%=      5-min Rain = 0
KAM1 092327Z 04006KT 20/M14 A2982 RMK A01 T02041136  RH  009%=      5-min Rain = 0
KAM1 092328Z 05007KT 20/M14 A2982 RMK A01 T02041137  RH  009%=      5-min Rain = 0
KAM1 092329Z 05007KT 20/M14 A2982 RMK A01 T02041136  RH  009%=      5-min Rain = 0
KAM1 092330Z 06008KT 20/M14 A2982 RMK A01 T02041135  RH  009%=      5-min Rain = 0
KAM1 092331Z 06007KT 20/M14 A2982 RMK A01 T02041136  RH  009%=      5-min Rain = 0
KAM1 092332Z 06009KT 20/M14 A2982 RMK A01 T02041135  RH  009%=      5-min Rain = 0
KAM1 092333Z 06006KT 20/M14 A2982 RMK A01 T02041135  RH  009%=      5-min Rain = 0
KAM1 092334Z 06007KT 20/M14 A2982 RMK A01 T02031135  RH  009%=      5-min Rain = 0
KAM1 092335Z 06009KT 20/M14 A2982 RMK A01 T02031135  RH  009%=      5-min Rain = 0
KAM1 092336Z 06009KT 20/M14 A2982 RMK A01 T02021135  RH  009%=      5-min Rain = 0
KAM1 092337Z 05008KT 20/M13 A2982 RMK A01 T02021134  RH  009%=      5-min Rain = 0
KAM1 092338Z 06008KT 20/M13 A2982 RMK A01 T02021133  RH  009%=      5-min Rain = 0
KAM1 092339Z 06007KT 20/M13 A2982 RMK A01 T02011134  RH  009%=      5-min Rain = 0
KAM1 092340Z 06007KT 20/M13 A2982 RMK A01 T02011134  RH  009%=      5-min Rain = 0
KAM1 092341Z 05007KT 20/M13 A2982 RMK A01 T02011133  RH  009%=      5-min Rain = 0
KAM1 092342Z 05007KT 20/M13 A2982 RMK A01 T02001132  RH  009%=      5-min Rain = 0
KAM1 092343Z 05006KT 20/M13 A2982 RMK A01 T02001133  RH  009%=      5-min Rain = 0
KAM1 092344Z 05007KT 20/M13 A2982 RMK A01 T01991134  RH  009%=      5-min Rain = 0
KAM1 092345Z 04006KT 20/M13 A2982 RMK A01 T01991134  RH  009%=      5-min Rain = 0
KAM1 092346Z 05006KT 20/M13 A2982 RMK A01 T01991134  RH  009%=      5-min Rain = 0
KAM1 092347Z 05006KT 20/M13 A2982 RMK A01 T01991134  RH  009%=      5-min Rain = 0
KAM1 092348Z 04005KT 20/M13 A2982 RMK A01 T01991133  RH  010%=      5-min Rain = 0
KAM1 092349Z 05004KT 20/M13 A2982 RMK A01 T01981132  RH  010%=      5-min Rain = 0
KAM1 092350Z 05004KT 20/M13 A2982 RMK A01 T01981133  RH  010%=      5-min Rain = 0
KAM1 092351Z 05005KT 20/M13 A2982 RMK A01 T01981133  RH  010%=      5-min Rain = 0
KAM1 092352Z 04005KT 20/M13 A2982 RMK A01 T01981133  RH  010%=      5-min Rain = 0
KAM1 092353Z 06004KT 20/M13 A2982 RMK A01 T01981133  RH  010%=      5-min Rain = 0
KAM1 092354Z 06004KT 20/M13 A2982 RMK A01 T01981132  RH  010%=      5-min Rain = 0
KAM1 092355Z 06005KT 20/M13 A2982 RMK A01 T01991131  RH  010%=      5-min Rain = 0
KAM1 092356Z 06005KT 20/M13 A2982 RMK A01 T01991130  RH  010%=      5-min Rain = 0
KAM1 092357Z 07005KT 20/M13 A2982 RMK A01 T01991131  RH  010%=      5-min Rain = 0
KAM1 092358Z 06005KT 20/M13 A2982 RMK A01 T01991131  RH  010%=      5-min Rain = 0
KAM1 092359Z 06006KT 20/M13 A2982 RMK A01 T02001131  RH  010%=      5-min Rain = 0
KAM1 100000Z 07007KT 20/M13 A2982 RMK A01 T02001130  RH  010%=      5-min Rain = 0
KAM1 100001Z 06007KT 20/M13 A2982 RMK A01 T02001130  RH  010%=      5-min Rain = 0
KAM1 100002Z 06007KT 20/M13 A2982 RMK A01 T02001130  RH  010%=      5-min Rain = 0
KAM1 100003Z 05007KT 20/M13 A2982 RMK A01 T02001130  RH  010%=      5-min Rain = 0
KAM1 100004Z 06005KT 20/M13 A2982 RMK A01 T01991130  RH  010%=      5-min Rain = 0
KAM1 100005Z 05005KT 20/M13 A2982 RMK A01 T02001130  RH  010%=      5-min Rain = 0
KAM1 100006Z 05005KT 20/M13 A2982 RMK A01 T01991129  RH  010%=      5-min Rain = 0
KAM1 100007Z 06006KT 20/M13 A2982 RMK A01 T01991129  RH  010%=      5-min Rain = 0
KAM1 100008Z 06005KT 20/M13 A2982 RMK A01 T01971129  RH  010%=      5-min Rain = 0
KAM1 100009Z 07006KT 20/M13 A2982 RMK A01 T01971130  RH  010%=      5-min Rain = 0
KAM1 100010Z 07006KT 20/M13 A2982 RMK A01 T01961130  RH  010%=      5-min Rain = 0
KAM1 100011Z 07006KT 20/M13 A2982 RMK A01 T01951130  RH  010%=      5-min Rain = 0
KAM1 100012Z 07006KT 20/M13 A2982 RMK A01 T01951131  RH  010%=      5-min Rain = 0
KAM1 100013Z 07006KT 19/M13 A2982 RMK A01 T01941130  RH  010%=      5-min Rain = 0
KAM1 100014Z 07005KT 19/M13 A2982 RMK A01 T01941129  RH  010%=      5-min Rain = 0
KAM1 100015Z 07004KT 19/M13 A2982 RMK A01 T01931129  RH  010%=      5-min Rain = 0
KAM1 100016Z 07004KT 19/M13 A2982 RMK A01 T01921130  RH  010%=      5-min Rain = 0
KAM1 100017Z 07005KT 19/M13 A2982 RMK A01 T01911129  RH  010%=      5-min Rain = 0
KAM1 100018Z 06005KT 19/M13 A2982 RMK A01 T01901129  RH  010%=      5-min Rain = 0
KAM1 100019Z 06005KT 19/M13 A2982 RMK A01 T01891130  RH  010%=      5-min Rain = 0
KAM1 100020Z 06005KT 19/M13 A2982 RMK A01 T01881131  RH  010%=      5-min Rain = 0
KAM1 100021Z 06005KT 19/M13 A2982 RMK A01 T01871130  RH  010%=      5-min Rain = 0
KAM1 100022Z 06005KT 19/M13 A2982 RMK A01 T01851131  RH  010%=      5-min Rain = 0
KAM1 100023Z 06005KT 18/M13 A2982 RMK A01 T01841131  RH  011%=      5-min Rain = 0
KAM1 100024Z 06005KT 18/M13 A2982 RMK A01 T01831132  RH  011%=      5-min Rain = 0
KAM1 100025Z 06005KT 18/M13 A2982 RMK A01 T01811132  RH  011%=      5-min Rain = 0
KAM1 100026Z 07005KT 18/M13 A2982 RMK A01 T01801131  RH  011%=      5-min Rain = 0
KAM1 100027Z 07005KT 18/M13 A2982 RMK A01 T01791131  RH  011%=      5-min Rain = 0
KAM1 100028Z 07005KT 18/M13 A2982 RMK A01 T01771132  RH  011%=      5-min Rain = 0
KAM1 100029Z 07005KT 18/M13 A2982 RMK A01 T01761132  RH  011%=      5-min Rain = 0
KAM1 100030Z 07005KT 18/M13 A2982 RMK A01 T01751133  RH  011%=      5-min Rain = 0
KAM1 100031Z 08004KT 17/M13 A2982 RMK A01 T01741133  RH  011%=      5-min Rain = 0
KAM1 100032Z 08004KT 17/M13 A2982 RMK A01 T01731133  RH  011%=      5-min Rain = 0
KAM1 100033Z 08004KT 17/M13 A2982 RMK A01 T01711133  RH  011%=      5-min Rain = 0
KAM1 100034Z 07004KT 17/M13 A2982 RMK A01 T01701133  RH  011%=      5-min Rain = 0
KAM1 100035Z 07004KT 17/M13 A2983 RMK A01 T01691133  RH  011%=      5-min Rain = 0
KAM1 100036Z 07004KT 17/M13 A2983 RMK A01 T01691132  RH  011%=      5-min Rain = 0
KAM1 100037Z 07005KT 17/M13 A2983 RMK A01 T01691132  RH  012%=      5-min Rain = 0
KAM1 100038Z 07005KT 17/M13 A2983 RMK A01 T01681131  RH  012%=      5-min Rain = 0
KAM1 100039Z 07005KT 17/M13 A2983 RMK A01 T01671132  RH  012%=      5-min Rain = 0
KAM1 100040Z 07005KT 17/M13 A2983 RMK A01 T01661132  RH  012%=      5-min Rain = 0
KAM1 100041Z 07005KT 17/M13 A2983 RMK A01 T01651132  RH  012%=      5-min Rain = 0
KAM1 100042Z 07005KT 16/M13 A2983 RMK A01 T01641132  RH  012%=      5-min Rain = 0
KAM1 100043Z 07005KT 16/M13 A2983 RMK A01 T01631132  RH  012%=      5-min Rain = 0
KAM1 100044Z 08005KT 16/M13 A2983 RMK A01 T01611133  RH  012%=      5-min Rain = 0
KAM1 100045Z 08006KT 16/M13 A2983 RMK A01 T01591133  RH  012%=      5-min Rain = 0
KAM1 100046Z 07006KT 16/M13 A2983 RMK A01 T01581134  RH  012%=      5-min Rain = 0
KAM1 100047Z 07005KT 16/M13 A2983 RMK A01 T01561134  RH  012%=      5-min Rain = 0
KAM1 100048Z 07006KT 16/M13 A2983 RMK A01 T01551134  RH  012%=      5-min Rain = 0
KAM1 100049Z 08005KT 15/M13 A2983 RMK A01 T01531134  RH  013%=      5-min Rain = 0
KAM1 100050Z 08005KT 15/M13 A2983 RMK A01 T01521134  RH  013%=      5-min Rain = 0
KAM1 100051Z 08005KT 15/M13 A2983 RMK A01 T01501134  RH  013%=      5-min Rain = 0
KAM1 100052Z 08004KT 15/M13 A2983 RMK A01 T01491134  RH  013%=      5-min Rain = 0
KAM1 100053Z 09004KT 15/M13 A2983 RMK A01 T01481134  RH  013%=      5-min Rain = 0
KAM1 100054Z 09004KT 15/M13 A2983 RMK A01 T01471134  RH  013%=      5-min Rain = 0
KAM1 100055Z 09004KT 15/M13 A2983 RMK A01 T01461134  RH  013%=      5-min Rain = 0
KAM1 100056Z 09004KT 15/M13 A2983 RMK A01 T01451134  RH  013%=      5-min Rain = 0
KAM1 100057Z 08003KT 15/M13 A2983 RMK A01 T01451133  RH  013%=      5-min Rain = 0
KAM1 100058Z 08003KT 14/M13 A2983 RMK A01 T01441133  RH  013%=      5-min Rain = 0
KAM1 100059Z 08003KT 14/M13 A2983 RMK A01 T01441132  RH  014%=      5-min Rain = 0
KAM1 100100Z 08003KT 14/M13 A2983 RMK A01 T01431132  RH  014%=      5-min Rain = 0
KAM1 100101Z 08003KT 14/M13 A2983 RMK A01 T01431131  RH  014%=      5-min Rain = 0
KAM1 100102Z 08003KT 14/M13 A2983 RMK A01 T01421132  RH  014%=      5-min Rain = 0
KAM1 100103Z 08003KT 14/M13 A2983 RMK A01 T01411132  RH  014%=      5-min Rain = 0
KAM1 100104Z 08003KT 14/M13 A2983 RMK A01 T01411132  RH  014%=      5-min Rain = 0
KAM1 100105Z 08003KT 14/M13 A2983 RMK A01 T01411131  RH  014%=      5-min Rain = 0
KAM1 100106Z 08003KT 14/M13 A2983 RMK A01 T01421129  RH  014%=      5-min Rain = 0
KAM1 100107Z 07003KT 14/M13 A2983 RMK A01 T01441129  RH  014%=      5-min Rain = 0
KAM1 100108Z 07004KT 14/M13 A2983 RMK A01 T01431132  RH  014%=      5-min Rain = 0
KAM1 100109Z 07005KT 14/M13 A2983 RMK A01 T01421132  RH  014%=      5-min Rain = 0
KAM1 100110Z 07006KT 14/M13 A2983 RMK A01 T01421130  RH  014%=      5-min Rain = 0
KAM1 100111Z 07006KT 14/M13 A2983 RMK A01 T01421130  RH  014%=      5-min Rain = 0
KAM1 100112Z 07005KT 14/M13 A2983 RMK A01 T01401131  RH  014%=      5-min Rain = 0
KAM1 100113Z 07006KT 14/M13 A2983 RMK A01 T01381131  RH  014%=      5-min Rain = 0
KAM1 100114Z 08006KT 14/M13 A2983 RMK A01 T01371131  RH  014%=      5-min Rain = 0
KAM1 100115Z 08006KT 14/M13 A2983 RMK A01 T01371130  RH  014%=      5-min Rain = 0
KAM1 100116Z 08006KT 14/M13 A2983 RMK A01 T01361130  RH  014%=      5-min Rain = 0
KAM1 100117Z 08005KT 14/M13 A2983 RMK A01 T01351131  RH  014%=      5-min Rain = 0
KAM1 100118Z 08005KT 13/M13 A2983 RMK A01 T01341132  RH  015%=      5-min Rain = 0
KAM1 100119Z 08005KT 13/M13 A2983 RMK A01 T01321133  RH  015%=      5-min Rain = 0
KAM1 100120Z 08005KT 13/M13 A2983 RMK A01 T01301134  RH  015%=      5-min Rain = 0
KAM1 100121Z 08004KT 13/M13 A2983 RMK A01 T01291134  RH  015%=      5-min Rain = 0
KAM1 100122Z 07004KT 13/M13 A2983 RMK A01 T01291134  RH  015%=      5-min Rain = 0
KAM1 100123Z 08004KT 13/M13 A2983 RMK A01 T01281134  RH  015%=      5-min Rain = 0
KAM1 100124Z 08004KT 13/M13 A2983 RMK A01 T01271134  RH  015%=      5-min Rain = 0
KAM1 100125Z 08005KT 13/M13 A2983 RMK A01 T01271134  RH  015%=      5-min Rain = 0
KAM1 100126Z 08005KT 13/M14 A2983 RMK A01 T01261135  RH  015%=      5-min Rain = 0
KAM1 100127Z 09005KT 13/M13 A2983 RMK A01 T01251134  RH  015%=      5-min Rain = 0
KAM1 100128Z 09005KT 12/M13 A2983 RMK A01 T01241134  RH  015%=      5-min Rain = 0
KAM1 100129Z 08005KT 12/M14 A2983 RMK A01 T01231135  RH  015%=      5-min Rain = 0
KAM1 100130Z 08004KT 12/M14 A2984 RMK A01 T01221135  RH  015%=      5-min Rain = 0
KAM1 100131Z 08005KT 12/M14 A2984 RMK A01 T01211135  RH  015%=      5-min Rain = 0
KAM1 100132Z 08005KT 12/M13 A2984 RMK A01 T01211134  RH  016%=      5-min Rain = 0
KAM1 100133Z 08004KT 12/M13 A2984 RMK A01 T01201134  RH  016%=      5-min Rain = 0
KAM1 100134Z 08004KT 12/M13 A2984 RMK A01 T01191133  RH  016%=      5-min Rain = 0
KAM1 100135Z 08004KT 12/M13 A2984 RMK A01 T01181133  RH  016%=      5-min Rain = 0
KAM1 100136Z 09004KT 12/M13 A2984 RMK A01 T01181133  RH  016%=      5-min Rain = 0
KAM1 100137Z 09004KT 12/M13 A2984 RMK A01 T01171133  RH  016%=      5-min Rain = 0
KAM1 100138Z 09004KT 12/M13 A2984 RMK A01 T01161133  RH  016%=      5-min Rain = 0
KAM1 100139Z 09005KT 12/M13 A2984 RMK A01 T01151133  RH  016%=      5-min Rain = 0
KAM1 100140Z 09005KT 11/M13 A2984 RMK A01 T01141133  RH  016%=      5-min Rain = 0
KAM1 100141Z 09005KT 11/M13 A2984 RMK A01 T01141133  RH  016%=      5-min Rain = 0
KAM1 100142Z 09004KT 11/M13 A2984 RMK A01 T01131133  RH  016%=      5-min Rain = 0
KAM1 100143Z 09004KT 11/M13 A2984 RMK A01 T01131133  RH  016%=      5-min Rain = 0
KAM1 100144Z 09004KT 11/M13 A2984 RMK A01 T01121134  RH  017%=      5-min Rain = 0
KAM1 100145Z 09004KT 11/M13 A2984 RMK A01 T01111134  RH  017%=      5-min Rain = 0
KAM1 100146Z 09004KT 11/M13 A2984 RMK A01 T01101134  RH  017%=      5-min Rain = 0
KAM1 100147Z 08004KT 11/M13 A2984 RMK A01 T01091134  RH  017%=      5-min Rain = 0
KAM1 100148Z 08005KT 11/M13 A2984 RMK A01 T01091134  RH  017%=      5-min Rain = 0
KAM1 100149Z 08005KT 11/M13 A2984 RMK A01 T01091134  RH  017%=      5-min Rain = 0
KAM1 100150Z 08005KT 11/M13 A2984 RMK A01 T01091134  RH  017%=      5-min Rain = 0
KAM1 100151Z 08005KT 11/M13 A2984 RMK A01 T01091134  RH  017%=      5-min Rain = 0
KAM1 100152Z 08005KT 11/M13 A2984 RMK A01 T01091134  RH  017%=      5-min Rain = 0
KAM1 100153Z 09006KT 11/M13 A2984 RMK A01 T01101133  RH  017%=      5-min Rain = 0
KAM1 100154Z 09006KT 11/M13 A2984 RMK A01 T01091133  RH  017%=      5-min Rain = 0
KAM1 100155Z 09006KT 11/M14 A2984 RMK A01 T01081135  RH  017%=      5-min Rain = 0
KAM1 100156Z 09007KT 11/M14 A2984 RMK A01 T01071136  RH  017%=      5-min Rain = 0
KAM1 100157Z 09006KT 11/M14 A2984 RMK A01 T01051137  RH  017%=      5-min Rain = 0
KAM1 100158Z 09006KT 10/M14 A2983 RMK A01 T01031138  RH  017%=      5-min Rain = 0
KAM1 100159Z 09007KT 10/M14 A2983 RMK A01 T01021139  RH  017%=      5-min Rain = 0
KAM1 100200Z 09007KT 10/M14 A2983 RMK A01 T01001139  RH  017%=      5-min Rain = 0
KAM1 100201Z 09007KT 10/M14 A2983 RMK A01 T00991139  RH  017%=      5-min Rain = 0
KAM1 100202Z 09007KT 10/M14 A2983 RMK A01 T00981139  RH  017%=      5-min Rain = 0
KAM1 100203Z 09007KT 10/M14 A2983 RMK A01 T00971138  RH  018%=      5-min Rain = 0
KAM1 100204Z 09007KT 10/M14 A2983 RMK A01 T00971137  RH  018%=      5-min Rain = 0
KAM1 100205Z 09007KT 10/M14 A2983 RMK A01 T00971137  RH  018%=      5-min Rain = 0
KAM1 100206Z 09007KT 10/M14 A2983 RMK A01 T00981136  RH  018%=      5-min Rain = 0
KAM1 100207Z 09006KT 10/M14 A2983 RMK A01 T00971136  RH  018%=      5-min Rain = 0
KAM1 100208Z 09006KT 10/M14 A2983 RMK A01 T00971136  RH  018%=      5-min Rain = 0
KAM1 100209Z 08007KT 10/M14 A2983 RMK A01 T00971135  RH  018%=      5-min Rain = 0
KAM1 100210Z 08007KT 10/M14 A2983 RMK A01 T00961135  RH  018%=      5-min Rain = 0
KAM1 100211Z 09007KT 10/M14 A2983 RMK A01 T00971135  RH  018%=      5-min Rain = 0
KAM1 100212Z 09007KT 10/M14 A2983 RMK A01 T00971135  RH  018%=      5-min Rain = 0
KAM1 100213Z 09007KT 10/M14 A2983 RMK A01 T00971136  RH  018%=      5-min Rain = 0
KAM1 100214Z 08007KT 10/M14 A2983 RMK A01 T00961136  RH  018%=      5-min Rain = 0
KAM1 100215Z 08007KT 10/M14 A2983 RMK A01 T00961135  RH  018%=      5-min Rain = 0
KAM1 100216Z 08007KT 10/M14 A2983 RMK A01 T00961135  RH  018%=      5-min Rain = 0
KAM1 100217Z 09007KT 10/M14 A2983 RMK A01 T00951136  RH  018%=      5-min Rain = 0
KAM1 100218Z 09007KT 09/M14 A2983 RMK A01 T00941136  RH  018%=      5-min Rain = 0
KAM1 100219Z 08007KT 09/M14 A2983 RMK A01 T00941135  RH  018%=      5-min Rain = 0
KAM1 100220Z 08007KT 09/M14 A2983 RMK A01 T00921135  RH  019%=      5-min Rain = 0
KAM1 100221Z 08006KT 09/M14 A2983 RMK A01 T00911136  RH  019%=      5-min Rain = 0
KAM1 100222Z 08006KT 09/M14 A2984 RMK A01 T00891136  RH  019%=      5-min Rain = 0
KAM1 100223Z 08006KT 09/M14 A2984 RMK A01 T00881135  RH  019%=      5-min Rain = 0
KAM1 100224Z 08006KT 09/M14 A2984 RMK A01 T00881135  RH  019%=      5-min Rain = 0
KAM1 100225Z 08006KT 09/M14 A2984 RMK A01 T00871135  RH  019%=      5-min Rain = 0
KAM1 100226Z 08006KT 09/M13 A2984 RMK A01 T00871134  RH  019%=      5-min Rain = 0
KAM1 100227Z 08005KT 09/M13 A2984 RMK A01 T00871134  RH  019%=      5-min Rain = 0
KAM1 100228Z 08005KT 09/M14 A2984 RMK A01 T00861135  RH  019%=      5-min Rain = 0
KAM1 100229Z 09005KT 09/M13 A2984 RMK A01 T00861134  RH  020%=      5-min Rain = 0
KAM1 100230Z 09005KT 09/M13 A2984 RMK A01 T00861134  RH  020%=      5-min Rain = 0
KAM1 100231Z 09005KT 09/M13 A2984 RMK A01 T00861133  RH  020%=      5-min Rain = 0
KAM1 100232Z 09005KT 09/M13 A2984 RMK A01 T00861133  RH  020%=      5-min Rain = 0
KAM1 100233Z 10005KT 09/M13 A2984 RMK A01 T00871133  RH  020%=      5-min Rain = 0
KAM1 100234Z 10005KT 09/M13 A2984 RMK A01 T00881132  RH  020%=      5-min Rain = 0
KAM1 100235Z 10005KT 09/M13 A2984 RMK A01 T00891132  RH  020%=      5-min Rain = 0
KAM1 100236Z 09006KT 09/M13 A2984 RMK A01 T00911131  RH  019%=      5-min Rain = 0
KAM1 100237Z 09006KT 09/M13 A2984 RMK A01 T00931130  RH  019%=      5-min Rain = 0
KAM1 100238Z 09006KT 10/M13 A2984 RMK A01 T00951130  RH  019%=      5-min Rain = 0
KAM1 100239Z 09006KT 10/M13 A2984 RMK A01 T00961131  RH  019%=      5-min Rain = 0
KAM1 100240Z 09006KT 10/M13 A2984 RMK A01 T00951132  RH  019%=      5-min Rain = 0
KAM1 100241Z 09006KT 09/M13 A2984 RMK A01 T00921134  RH  019%=      5-min Rain = 0
KAM1 100242Z 09006KT 09/M14 A2984 RMK A01 T00901135  RH  019%=      5-min Rain = 0
KAM1 100243Z 09005KT 09/M14 A2984 RMK A01 T00881135  RH  019%=      5-min Rain = 0
KAM1 100244Z 09005KT 09/M14 A2984 RMK A01 T00881135  RH  019%=      5-min Rain = 0
KAM1 100245Z 09005KT 09/M14 A2984 RMK A01 T00861136  RH  019%=      5-min Rain = 0
KAM1 100246Z 09005KT 09/M14 A2984 RMK A01 T00851136  RH  019%=      5-min Rain = 0
KAM1 100247Z 09005KT 08/M14 A2984 RMK A01 T00831137  RH  020%=      5-min Rain = 0
KAM1 100248Z 09005KT 08/M14 A2984 RMK A01 T00821137  RH  020%=      5-min Rain = 0
KAM1 100249Z 10004KT 08/M14 A2984 RMK A01 T00811136  RH  020%=      5-min Rain = 0
KAM1 100250Z 10005KT 08/M14 A2984 RMK A01 T00811135  RH  020%=      5-min Rain = 0
KAM1 100251Z 10005KT 08/M14 A2984 RMK A01 T00811135  RH  020%=      5-min Rain = 0
KAM1 100252Z 10005KT 08/M14 A2984 RMK A01 T00831135  RH  020%=      5-min Rain = 0
KAM1 100253Z 10006KT 09/M13 A2984 RMK A01 T00861133  RH  020%=      5-min Rain = 0
KAM1 100254Z 11006KT 09/M13 A2984 RMK A01 T00891132  RH  019%=      5-min Rain = 0
KAM1 100255Z 10005KT 09/M13 A2985 RMK A01 T00901133  RH  019%=      5-min Rain = 0
KAM1 100256Z 10005KT 09/M13 A2985 RMK A01 T00891134  RH  019%=      5-min Rain = 0
KAM1 100257Z 11005KT 09/M14 A2985 RMK A01 T00871136  RH  019%=      5-min Rain = 0
KAM1 100258Z 11005KT 08/M14 A2985 RMK A01 T00841136  RH  019%=      5-min Rain = 0
KAM1 100259Z 11004KT 08/M14 A2985 RMK A01 T00831135  RH  020%=      5-min Rain = 0
KAM1 100300Z 12004KT 08/M13 A2985 RMK A01 T00831134  RH  020%=      5-min Rain = 0
KAM1 100301Z 11005KT 08/M13 A2985 RMK A01 T00831133  RH  020%=      5-min Rain = 0
KAM1 100302Z 11005KT 08/M13 A2985 RMK A01 T00831133  RH  020%=      5-min Rain = 0
KAM1 100303Z 11005KT 08/M13 A2984 RMK A01 T00831132  RH  020%=      5-min Rain = 0
KAM1 100304Z 11005KT 08/M13 A2984 RMK A01 T00831130  RH  021%=      5-min Rain = 0
KAM1 100305Z 11005KT 08/M13 A2984 RMK A01 T00821126  RH  021%=      5-min Rain = 0
KAM1 100306Z 11005KT 08/M12 A2984 RMK A01 T00811123  RH  022%=      5-min Rain = 0
KAM1 100307Z 10005KT 08/M12 A2984 RMK A01 T00801120  RH  023%=      5-min Rain = 0
KAM1 100308Z 10005KT 08/M12 A2984 RMK A01 T00801116  RH  024%=      5-min Rain = 0
KAM1 100309Z 10005KT 08/M11 A2984 RMK A01 T00811113  RH  024%=      5-min Rain = 0
KAM1 100310Z 10005KT 08/M11 A2984 RMK A01 T00821112  RH  024%=      5-min Rain = 0
KAM1 100311Z 10006KT 08/M11 A2985 RMK A01 T00821113  RH  024%=      5-min Rain = 0
KAM1 100312Z 10006KT 08/M11 A2985 RMK A01 T00821112  RH  024%=      5-min Rain = 0
KAM1 100313Z 10006KT 08/M11 A2985 RMK A01 T00821111  RH  024%=      5-min Rain = 0
KAM1 100314Z 10006KT 08/M11 A2985 RMK A01 T00831112  RH  024%=      5-min Rain = 0
KAM1 100315Z 10005KT 08/M11 A2985 RMK A01 T00831112  RH  024%=      5-min Rain = 0
KAM1 100316Z 10004KT 08/M11 A2984 RMK A01 T00841111  RH  024%=      5-min Rain = 0
KAM1 100317Z 10004KT 09/M11 A2984 RMK A01 T00861112  RH  023%=      5-min Rain = 0
KAM1 100318Z 11004KT 09/M11 A2984 RMK A01 T00881110  RH  023%=      5-min Rain = 0
KAM1 100319Z 12004KT 09/M11 A2984 RMK A01 T00871112  RH  023%=      5-min Rain = 0
KAM1 100320Z 11004KT 09/M11 A2985 RMK A01 T00851114  RH  023%=      5-min Rain = 0
KAM1 100321Z 11004KT 08/M11 A2985 RMK A01 T00821114  RH  024%=      5-min Rain = 0
KAM1 100322Z 11004KT 08/M11 A2984 RMK A01 T00811113  RH  024%=      5-min Rain = 0
KAM1 100323Z 12005KT 08/M11 A2984 RMK A01 T00841113  RH  023%=      5-min Rain = 0
KAM1 100324Z 11006KT 09/M12 A2984 RMK A01 T00861115  RH  023%=      5-min Rain = 0
KAM1 100325Z 11006KT 09/M12 A2984 RMK A01 T00861116  RH  023%=      5-min Rain = 0
KAM1 100326Z 11006KT 09/M12 A2984 RMK A01 T00861116  RH  023%=      5-min Rain = 0
KAM1 100327Z 11006KT 09/M12 A2984 RMK A01 T00861116  RH  023%=      5-min Rain = 0
KAM1 100328Z 12006KT 09/M12 A2984 RMK A01 T00861116  RH  023%=      5-min Rain = 0
KAM1 100329Z 12006KT 09/M12 A2984 RMK A01 T00861117  RH  022%=      5-min Rain = 0
KAM1 100330Z 12005KT 09/M12 A2984 RMK A01 T00861118  RH  022%=      5-min Rain = 0
KAM1 100331Z 13005KT 09/M12 A2984 RMK A01 T00851118  RH  022%=      5-min Rain = 0
KAM1 100332Z 13005KT 09/M12 A2984 RMK A01 T00851119  RH  022%=      5-min Rain = 0
KAM1 100333Z 13005KT 08/M12 A2984 RMK A01 T00841120  RH  022%=      5-min Rain = 0
KAM1 100334Z 12006KT 08/M12 A2984 RMK A01 T00841120  RH  022%=      5-min Rain = 0
KAM1 100335Z 12006KT 08/M12 A2984 RMK A01 T00841121  RH  022%=      5-min Rain = 0
KAM1 100336Z 12005KT 08/M12 A2984 RMK A01 T00821122  RH  022%=      5-min Rain = 0
KAM1 100337Z 12005KT 08/M12 A2984 RMK A01 T00801123  RH  022%=      5-min Rain = 0
KAM1 100338Z 12005KT 08/M12 A2984 RMK A01 T00781124  RH  022%=      5-min Rain = 0
KAM1 100339Z 13005KT 08/M12 A2984 RMK A01 T00771124  RH  023%=      5-min Rain = 0
KAM1 100340Z 13006KT 08/M12 A2983 RMK A01 T00761124  RH  023%=      5-min Rain = 0
KAM1 100341Z 14005KT 08/M13 A2983 RMK A01 T00761126  RH  022%=      5-min Rain = 0
KAM1 100342Z 14006KT 08/M13 A2983 RMK A01 T00761126  RH  022%=      5-min Rain = 0
KAM1 100343Z 13006KT 08/M13 A2983 RMK A01 T00761126  RH  022%=      5-min Rain = 0
KAM1 100344Z 13006KT 08/M13 A2983 RMK A01 T00751125  RH  023%=      5-min Rain = 0
KAM1 100345Z 13007KT 08/M12 A2983 RMK A01 T00751124  RH  023%=      5-min Rain = 0
KAM1 100346Z 13007KT 08/M12 A2983 RMK A01 T00751122  RH  023%=      5-min Rain = 0
KAM1 100347Z 13008KT 08/M12 A2983 RMK A01 T00751120  RH  024%=      5-min Rain = 0
KAM1 100348Z 13008KT 07/M12 A2983 RMK A01 T00741119  RH  024%=      5-min Rain = 0
KAM1 100349Z 12008KT 08/M12 A2983 RMK A01 T00751118  RH  024%=      5-min Rain = 0
KAM1 100350Z 12008KT 08/M12 A2983 RMK A01 T00761117  RH  024%=      5-min Rain = 0
KAM1 100351Z 12008KT 08/M12 A2983 RMK A01 T00771118  RH  024%=      5-min Rain = 0
KAM1 100352Z 12008KT 08/M12 A2983 RMK A01 T00771120  RH  023%=      5-min Rain = 0
KAM1 100353Z 12008KT 08/M12 A2983 RMK A01 T00771122  RH  023%=      5-min Rain = 0
KAM1 100354Z 12007KT 08/M12 A2983 RMK A01 T00771123  RH  023%=      5-min Rain = 0
KAM1 100355Z 12007KT 08/M12 A2983 RMK A01 T00771123  RH  023%=      5-min Rain = 0
KAM1 100356Z 12007KT 08/M12 A2983 RMK A01 T00771121  RH  023%=      5-min Rain = 0
KAM1 100357Z 11006KT 08/M12 A2984 RMK A01 T00761118  RH  024%=      5-min Rain = 0
KAM1 100358Z 12006KT 08/M12 A2984 RMK A01 T00761116  RH  024%=      5-min Rain = 0
KAM1 100359Z 12006KT 08/M11 A2984 RMK A01 T00771114  RH  025%=      5-min Rain = 0
KAM1 100400Z 12006KT 08/M11 A2984 RMK A01 T00781112  RH  025%=      5-min Rain = 0
KAM1 100401Z 12006KT 08/M11 A2984 RMK A01 T00781112  RH  025%=      5-min Rain = 0
KAM1 100402Z 13006KT 08/M11 A2984 RMK A01 T00781110  RH  025%=      5-min Rain = 0
KAM1 100403Z 13006KT 08/M11 A2984 RMK A01 T00781108  RH  025%=      5-min Rain = 0
KAM1 100404Z 13006KT 08/M11 A2984 RMK A01 T00791106  RH  026%=      5-min Rain = 0
KAM1 100405Z 13006KT 08/M11 A2983 RMK A01 T00801107  RH  025%=      5-min Rain = 0
KAM1 100406Z 13007KT 08/M11 A2983 RMK A01 T00811109  RH  025%=      5-min Rain = 0
KAM1 100407Z 13007KT 08/M11 A2983 RMK A01 T00801112  RH  024%=      5-min Rain = 0
KAM1 100408Z 13007KT 08/M12 A2983 RMK A01 T00791115  RH  024%=      5-min Rain = 0
KAM1 100409Z 13007KT 08/M12 A2984 RMK A01 T00791115  RH  024%=      5-min Rain = 0
KAM1 100410Z 13007KT 08/M12 A2984 RMK A01 T00781116  RH  024%=      5-min Rain = 0
KAM1 100411Z 13007KT 08/M12 A2984 RMK A01 T00781118  RH  023%=      5-min Rain = 0
KAM1 100412Z 13007KT 08/M12 A2984 RMK A01 T00791118  RH  023%=      5-min Rain = 0
KAM1 100413Z 13007KT 08/M12 A2984 RMK A01 T00791119  RH  023%=      5-min Rain = 0
KAM1 100414Z 13007KT 08/M12 A2984 RMK A01 T00781120  RH  023%=      5-min Rain = 0
KAM1 100415Z 12006KT 08/M12 A2984 RMK A01 T00781122  RH  023%=      5-min Rain = 0
KAM1 100416Z 12006KT 08/M12 A2984 RMK A01 T00781124  RH  022%=      5-min Rain = 0
KAM1 100417Z 12007KT 08/M13 A2984 RMK A01 T00771126  RH  022%=      5-min Rain = 0
KAM1 100418Z 12007KT 08/M13 A2984 RMK A01 T00761125  RH  022%=      5-min Rain = 0
KAM1 100419Z 12007KT 08/M12 A2985 RMK A01 T00761124  RH  023%=      5-min Rain = 0
KAM1 100420Z 12006KT 08/M12 A2985 RMK A01 T00761122  RH  023%=      5-min Rain = 0
KAM1 100421Z 12006KT 08/M12 A2985 RMK A01 T00761119  RH  024%=      5-min Rain = 0
KAM1 100422Z 12006KT 08/M12 A2985 RMK A01 T00761117  RH  024%=      5-min Rain = 0
KAM1 100423Z 12006KT 08/M12 A2985 RMK A01 T00761116  RH  024%=      5-min Rain = 0
KAM1 100424Z 12006KT 08/M11 A2985 RMK A01 T00761114  RH  025%=      5-min Rain = 0
KAM1 100425Z 12006KT 08/M11 A2985 RMK A01 T00761113  RH  025%=      5-min Rain = 0
KAM1 100426Z 12006KT 08/M11 A2985 RMK A01 T00751111  RH  025%=      5-min Rain = 0
KAM1 100427Z 12006KT 08/M11 A2986 RMK A01 T00761110  RH  025%=      5-min Rain = 0
KAM1 100428Z 12005KT 07/M11 A2986 RMK A01 T00741110  RH  026%=      5-min Rain = 0
KAM1 100429Z 13005KT 07/M11 A2986 RMK A01 T00741109  RH  026%=      5-min Rain = 0
KAM1 100430Z 13005KT 07/M11 A2986 RMK A01 T00741108  RH  026%=      5-min Rain = 0
KAM1 100431Z 13006KT 08/M11 A2986 RMK A01 T00751106  RH  026%=      5-min Rain = 0
KAM1 100432Z 13005KT 08/M11 A2986 RMK A01 T00761107  RH  026%=      5-min Rain = 0
KAM1 100433Z 13006KT 08/M11 A2986 RMK A01 T00751107  RH  026%=      5-min Rain = 0
KAM1 100434Z 14005KT 07/M11 A2986 RMK A01 T00741106  RH  026%=      5-min Rain = 0
KAM1 100435Z 16004KT 07/M11 A2986 RMK A01 T00741106  RH  027%=      5-min Rain = 0
KAM1 100436Z 15003KT 07/M11 A2986 RMK A01 T00721112  RH  026%=      5-min Rain = 0
KAM1 100437Z 14003KT 07/M12 A2986 RMK A01 T00721118  RH  024%=      5-min Rain = 0
KAM1 100438Z 13004KT 07/M12 A2986 RMK A01 T00711120  RH  024%=      5-min Rain = 0
KAM1 100439Z 13004KT 07/M12 A2986 RMK A01 T00701121  RH  024%=      5-min Rain = 0
KAM1 100440Z 13004KT 07/M12 A2986 RMK A01 T00701122  RH  024%=      5-min Rain = 0
KAM1 100441Z 12005KT 07/M12 A2986 RMK A01 T00701122  RH  024%=      5-min Rain = 0
KAM1 100442Z 12005KT 07/M12 A2986 RMK A01 T00721120  RH  024%=      5-min Rain = 0
KAM1 100443Z 12005KT 07/M12 A2986 RMK A01 T00741118  RH  024%=      5-min Rain = 0
KAM1 100444Z 12005KT 08/M12 A2986 RMK A01 T00751116  RH  024%=      5-min Rain = 0
KAM1 100445Z 13005KT 08/M11 A2985 RMK A01 T00751114  RH  025%=      5-min Rain = 0
KAM1 100446Z 13005KT 07/M11 A2985 RMK A01 T00741114  RH  025%=      5-min Rain = 0
KAM1 100447Z 13006KT 07/M12 A2985 RMK A01 T00721116  RH  025%=      5-min Rain = 0
KAM1 100448Z 13006KT 07/M12 A2985 RMK A01 T00691117  RH  025%=      5-min Rain = 0
KAM1 100449Z 13006KT 07/M12 A2985 RMK A01 T00681118  RH  025%=      5-min Rain = 0
KAM1 100450Z 12006KT 07/M12 A2985 RMK A01 T00691118  RH  025%=      5-min Rain = 0
KAM1 100451Z 12006KT 07/M12 A2985 RMK A01 T00701117  RH  025%=      5-min Rain = 0
KAM1 100452Z 13006KT 07/M12 A2985 RMK A01 T00711116  RH  025%=      5-min Rain = 0
KAM1 100453Z 13007KT 07/M12 A2985 RMK A01 T00721115  RH  025%=      5-min Rain = 0
KAM1 100454Z 13007KT 07/M12 A2984 RMK A01 T00711115  RH  025%=      5-min Rain = 0
KAM1 100455Z 12006KT 07/M12 A2984 RMK A01 T00711115  RH  025%=      5-min Rain = 0
KAM1 100456Z 12006KT 07/M11 A2984 RMK A01 T00711114  RH  025%=      5-min Rain = 0
KAM1 100457Z 11007KT 07/M11 A2984 RMK A01 T00711112  RH  026%=      5-min Rain = 0
KAM1 100458Z 11007KT 07/M11 A2984 RMK A01 T00711108  RH  027%=      5-min Rain = 0
KAM1 100459Z 11007KT 07/M10 A2983 RMK A01 T00691104  RH  028%=      5-min Rain = 0
KAM1 100500Z 11007KT 07/M10 A2983 RMK A01 T00691099  RH  029%=      5-min Rain = 0
KAM1 100501Z 10007KT 07/M09 A2983 RMK A01 T00681093  RH  031%=      5-min Rain = 0
KAM1 100502Z 10007KT 07/M09 A2983 RMK A01 T00681091  RH  031%=      5-min Rain = 0
KAM1 100503Z 11008KT 07/M09 A2983 RMK A01 T00671092  RH  031%=      5-min Rain = 0
KAM1 100504Z 11008KT 07/M09 A2982 RMK A01 T00651094  RH  031%=      5-min Rain = 0
KAM1 100505Z 11008KT 06/M10 A2982 RMK A01 T00641096  RH  031%=      5-min Rain = 0
KAM1 100506Z 10008KT 07/M10 A2982 RMK A01 T00651096  RH  031%=      5-min Rain = 0
KAM1 100507Z 10009KT 07/M09 A2982 RMK A01 T00681094  RH  030%=      5-min Rain = 0
KAM1 100508Z 10009KT 07/M09 A2982 RMK A01 T00711092  RH  030%=      5-min Rain = 0
KAM1 100509Z 10008KT 07/M09 A2982 RMK A01 T00741093  RH  029%=      5-min Rain = 0
KAM1 100510Z 10008KT 08/M10 A2982 RMK A01 T00751097  RH  028%=      5-min Rain = 0
KAM1 100511Z 11008KT 08/M11 A2982 RMK A01 T00751105  RH  027%=      5-min Rain = 0
KAM1 100512Z 11008KT 07/M11 A2982 RMK A01 T00741110  RH  026%=      5-min Rain = 0
KAM1 100513Z 11008KT 07/M11 A2982 RMK A01 T00721113  RH  025%=      5-min Rain = 0
KAM1 100514Z 11008KT 07/M11 A2982 RMK A01 T00721112  RH  026%=      5-min Rain = 0
KAM1 100515Z 11008KT 07/M11 A2982 RMK A01 T00701112  RH  026%=      5-min Rain = 0
KAM1 100516Z 11009KT 07/M11 A2982 RMK A01 T00701108  RH  027%=      5-min Rain = 0
KAM1 100517Z 11009KT 07/M10 A2982 RMK A01 T00701104  RH  028%=      5-min Rain = 0
KAM1 100518Z 11009KT 07/M10 A2983 RMK A01 T00701100  RH  029%=      5-min Rain = 0
KAM1 100519Z 12009KT 07/M10 A2983 RMK A01 T00711097  RH  029%=      5-min Rain = 0
KAM1 100520Z 12008KT 07/M10 A2983 RMK A01 T00731095  RH  029%=      5-min Rain = 0
KAM1 100521Z 12008KT 08/M10 A2983 RMK A01 T00751095  RH  029%=      5-min Rain = 0
KAM1 100522Z 13008KT 08/M10 A2983 RMK A01 T00761096  RH  028%=      5-min Rain = 0
KAM1 100523Z 14007KT 08/M10 A2983 RMK A01 T00771097  RH  028%=      5-min Rain = 0
KAM1 100524Z 20004KT 08/M10 A2984 RMK A01 T00771101  RH  027%=      5-min Rain = 0
KAM1 100525Z 21006KT 08/M11 A2984 RMK A01 T00751111  RH  025%=      5-min Rain = 0
KAM1 100526Z 20006KT 07/M12 A2984 RMK A01 T00681118  RH  025%=      5-min Rain = 0
KAM1 100527Z 19005KT 06/M12 A2984 RMK A01 T00641118  RH  026%=      5-min Rain = 0
KAM1 100528Z 18004KT 06/M12 A2984 RMK A01 T00621118  RH  026%=      5-min Rain = 0
KAM1 100529Z 16005KT 06/M12 A2984 RMK A01 T00631117  RH  026%=      5-min Rain = 0
KAM1 100530Z 16004KT 06/M12 A2984 RMK A01 T00641116  RH  026%=      5-min Rain = 0
KAM1 100531Z 16004KT 07/M12 A2984 RMK A01 T00681115  RH  026%=      5-min Rain = 0
KAM1 100532Z 17004KT 07/M12 A2984 RMK A01 T00711115  RH  025%=      5-min Rain = 0
KAM1 100533Z 17004KT 07/M12 A2985 RMK A01 T00721116  RH  025%=      5-min Rain = 0
KAM1 100534Z 18004KT 07/M12 A2985 RMK A01 T00721117  RH  025%=      5-min Rain = 0
KAM1 100535Z 18005KT 07/M12 A2985 RMK A01 T00721117  RH  025%=      5-min Rain = 0
KAM1 100536Z 19005KT 07/M12 A2984 RMK A01 T00721118  RH  024%=      5-min Rain = 0
KAM1 100537Z 20005KT 07/M12 A2984 RMK A01 T00731118  RH  024%=      5-min Rain = 0
KAM1 100538Z 19005KT 07/M12 A2984 RMK A01 T00721118  RH  024%=      5-min Rain = 0
KAM1 100539Z 18004KT 07/M12 A2984 RMK A01 T00711118  RH  025%=      5-min Rain = 0
KAM1 100540Z 18004KT 07/M12 A2984 RMK A01 T00701119  RH  025%=      5-min Rain = 0
KAM1 100541Z 17004KT 07/M12 A2984 RMK A01 T00701119  RH  025%=      5-min Rain = 0
KAM1 100542Z 17004KT 07/M12 A2984 RMK A01 T00691120  RH  025%=      5-min Rain = 0
KAM1 100543Z 18004KT 07/M12 A2984 RMK A01 T00681120  RH  025%=      5-min Rain = 0
KAM1 100544Z 18004KT 07/M12 A2984 RMK A01 T00671120  RH  025%=      5-min Rain = 0
KAM1 100545Z 18004KT 07/M12 A2984 RMK A01 T00671120  RH  025%=      5-min Rain = 0
KAM1 100546Z 19005KT 07/M12 A2984 RMK A01 T00661120  RH  025%=      5-min Rain = 0
KAM1 100547Z 19005KT 07/M12 A2984 RMK A01 T00661120  RH  025%=      5-min Rain = 0
KAM1 100548Z 19005KT 07/M12 A2984 RMK A01 T00651120  RH  025%=      5-min Rain = 0
KAM1 100549Z 19005KT 06/M12 A2985 RMK A01 T00641121  RH  025%=      5-min Rain = 0
KAM1 100550Z 19006KT 06/M12 A2985 RMK A01 T00631120  RH  026%=      5-min Rain = 0
KAM1 100551Z 19006KT 06/M12 A2985 RMK A01 T00631119  RH  026%=      5-min Rain = 0
KAM1 100552Z 19006KT 06/M12 A2985 RMK A01 T00631119  RH  026%=      5-min Rain = 0
KAM1 100553Z 19006KT 06/M12 A2985 RMK A01 T00611120  RH  026%=      5-min Rain = 0
KAM1 100554Z 19006KT 06/M12 A2985 RMK A01 T00581120  RH  026%=      5-min Rain = 0
KAM1 100555Z 19006KT 06/M12 A2986 RMK A01 T00551121  RH  027%=      5-min Rain = 0
KAM1 100556Z 19006KT 05/M12 A2986 RMK A01 T00531121  RH  027%=      5-min Rain = 0
KAM1 100557Z 19006KT 05/M12 A2985 RMK A01 T00511121  RH  028%=      5-min Rain = 0
KAM1 100558Z 19006KT 05/M12 A2985 RMK A01 T00501120  RH  028%=      5-min Rain = 0
KAM1 100559Z 19006KT 05/M12 A2985 RMK A01 T00501119  RH  028%=      5-min Rain = 0

Page generated in 0.0806 seconds.